<?xml version="1.0" encoding="UTF-8" standalone="no" ?>
<gpx xmlns="http://www.topografix.com/GPX/1/1" xmlns:xsi="http://www.w3.org/2001/XMLSchema-instance" xsi:schemaLocation="http://www.topografix.com/GPX/1/1 http://www.topografix.com/GPX/1/1/gpx.xsd" version="1.1" creator="VisuGPX - https://www.visugpx.com">
  <metadata>
    <name>Du Crestet à la Font du Pommier</name>
    <desc><![CDATA[Balade entre le Crestet et la Font du Pommier]]></desc>
  </metadata>
  <trk>
    <name><![CDATA[2017-10-30 14:12:49]]></name>
    <trkseg>
      <trkpt lat="44.21649" lon="5.08462">
        <ele>415.43</ele>
        <time>2017-10-30T08:26:53Z</time>
      </trkpt>
      <trkpt lat="44.21649" lon="5.08462">
        <ele>415.43</ele>
        <time>2017-10-30T08:26:54Z</time>
      </trkpt>
      <trkpt lat="44.21649" lon="5.08462">
        <ele>363.04</ele>
        <time>2017-10-30T08:26:57Z</time>
      </trkpt>
      <trkpt lat="44.21649" lon="5.08462">
        <ele>363.04</ele>
        <time>2017-10-30T08:26:58Z</time>
      </trkpt>
      <trkpt lat="44.21649" lon="5.08462">
        <ele>363.52</ele>
        <time>2017-10-30T08:27:25Z</time>
      </trkpt>
      <trkpt lat="44.21649" lon="5.08465">
        <ele>362.55</ele>
        <time>2017-10-30T08:27:37Z</time>
      </trkpt>
      <trkpt lat="44.21646" lon="5.08464">
        <ele>362.07</ele>
        <time>2017-10-30T08:28:05Z</time>
      </trkpt>
      <trkpt lat="44.21649" lon="5.08468">
        <ele>362.07</ele>
        <time>2017-10-30T08:28:30Z</time>
      </trkpt>
      <trkpt lat="44.21652" lon="5.08472">
        <ele>361.11</ele>
        <time>2017-10-30T08:29:01Z</time>
      </trkpt>
      <trkpt lat="44.2165" lon="5.0847">
        <ele>361.11</ele>
        <time>2017-10-30T08:29:25Z</time>
      </trkpt>
      <trkpt lat="44.21651" lon="5.08468">
        <ele>360.63</ele>
        <time>2017-10-30T08:29:58Z</time>
      </trkpt>
      <trkpt lat="44.2165" lon="5.08467">
        <ele>360.63</ele>
        <time>2017-10-30T08:30:27Z</time>
      </trkpt>
      <trkpt lat="44.21649" lon="5.08468">
        <ele>360.15</ele>
        <time>2017-10-30T08:30:59Z</time>
      </trkpt>
      <trkpt lat="44.21649" lon="5.08468">
        <ele>359.67</ele>
        <time>2017-10-30T08:31:33Z</time>
      </trkpt>
      <trkpt lat="44.21651" lon="5.08469">
        <ele>359.67</ele>
        <time>2017-10-30T08:31:57Z</time>
      </trkpt>
      <trkpt lat="44.2165" lon="5.08469">
        <ele>359.67</ele>
        <time>2017-10-30T08:32:27Z</time>
      </trkpt>
      <trkpt lat="44.21647" lon="5.08468">
        <ele>359.19</ele>
        <time>2017-10-30T08:33:00Z</time>
      </trkpt>
      <trkpt lat="44.21648" lon="5.0847">
        <ele>359.19</ele>
        <time>2017-10-30T08:33:27Z</time>
      </trkpt>
      <trkpt lat="44.21648" lon="5.08473">
        <ele>358.71</ele>
        <time>2017-10-30T08:33:52Z</time>
      </trkpt>
      <trkpt lat="44.2165" lon="5.08471">
        <ele>359.67</ele>
        <time>2017-10-30T08:34:18Z</time>
      </trkpt>
      <trkpt lat="44.21649" lon="5.08469">
        <ele>359.67</ele>
        <time>2017-10-30T08:34:47Z</time>
      </trkpt>
      <trkpt lat="44.21648" lon="5.0847">
        <ele>359.67</ele>
        <time>2017-10-30T08:35:18Z</time>
      </trkpt>
      <trkpt lat="44.21648" lon="5.08468">
        <ele>359.67</ele>
        <time>2017-10-30T08:35:46Z</time>
      </trkpt>
      <trkpt lat="44.2165" lon="5.08467">
        <ele>359.67</ele>
        <time>2017-10-30T08:36:06Z</time>
      </trkpt>
      <trkpt lat="44.21651" lon="5.08465">
        <ele>359.19</ele>
        <time>2017-10-30T08:36:21Z</time>
      </trkpt>
      <trkpt lat="44.2165" lon="5.08464">
        <ele>359.67</ele>
        <time>2017-10-30T08:36:36Z</time>
      </trkpt>
      <trkpt lat="44.21654" lon="5.08465">
        <ele>359.19</ele>
        <time>2017-10-30T08:36:56Z</time>
      </trkpt>
      <trkpt lat="44.2165" lon="5.08463">
        <ele>359.19</ele>
        <time>2017-10-30T08:37:19Z</time>
      </trkpt>
      <trkpt lat="44.21637" lon="5.0846">
        <ele>359.67</ele>
        <time>2017-10-30T08:37:36Z</time>
      </trkpt>
      <trkpt lat="44.21616" lon="5.08465">
        <ele>361.11</ele>
        <time>2017-10-30T08:37:58Z</time>
      </trkpt>
      <trkpt lat="44.21599" lon="5.08463">
        <ele>361.59</ele>
        <time>2017-10-30T08:38:17Z</time>
      </trkpt>
      <trkpt lat="44.2158" lon="5.08467">
        <ele>362.55</ele>
        <time>2017-10-30T08:38:36Z</time>
      </trkpt>
      <trkpt lat="44.21562" lon="5.0847">
        <ele>364</ele>
        <time>2017-10-30T08:38:56Z</time>
      </trkpt>
      <trkpt lat="44.21544" lon="5.08473">
        <ele>364.96</ele>
        <time>2017-10-30T08:39:16Z</time>
      </trkpt>
      <trkpt lat="44.21527" lon="5.08476">
        <ele>365.92</ele>
        <time>2017-10-30T08:39:34Z</time>
      </trkpt>
      <trkpt lat="44.21515" lon="5.0848">
        <ele>366.88</ele>
        <time>2017-10-30T08:39:45Z</time>
      </trkpt>
      <trkpt lat="44.21508" lon="5.0848">
        <ele>367.36</ele>
        <time>2017-10-30T08:39:56Z</time>
      </trkpt>
      <trkpt lat="44.21506" lon="5.08481">
        <ele>365.92</ele>
        <time>2017-10-30T08:39:58Z</time>
      </trkpt>
      <trkpt lat="44.21504" lon="5.08482">
        <ele>369.28</ele>
        <time>2017-10-30T08:39:59Z</time>
      </trkpt>
      <trkpt lat="44.21503" lon="5.08483">
        <ele>367.84</ele>
        <time>2017-10-30T08:40:00Z</time>
      </trkpt>
      <trkpt lat="44.21481" lon="5.08487">
        <ele>368.8</ele>
        <time>2017-10-30T08:40:19Z</time>
      </trkpt>
      <trkpt lat="44.21467" lon="5.08487">
        <ele>370.73</ele>
        <time>2017-10-30T08:40:37Z</time>
      </trkpt>
      <trkpt lat="44.2145" lon="5.08491">
        <ele>371.21</ele>
        <time>2017-10-30T08:40:53Z</time>
      </trkpt>
      <trkpt lat="44.21433" lon="5.08497">
        <ele>373.61</ele>
        <time>2017-10-30T08:41:12Z</time>
      </trkpt>
      <trkpt lat="44.21416" lon="5.08505">
        <ele>373.61</ele>
        <time>2017-10-30T08:41:31Z</time>
      </trkpt>
      <trkpt lat="44.21411" lon="5.08509">
        <ele>372.17</ele>
        <time>2017-10-30T08:41:37Z</time>
      </trkpt>
      <trkpt lat="44.21392" lon="5.08519">
        <ele>371.21</ele>
        <time>2017-10-30T08:41:58Z</time>
      </trkpt>
      <trkpt lat="44.21375" lon="5.08526">
        <ele>371.21</ele>
        <time>2017-10-30T08:42:16Z</time>
      </trkpt>
      <trkpt lat="44.21359" lon="5.08531">
        <ele>371.21</ele>
        <time>2017-10-30T08:42:32Z</time>
      </trkpt>
      <trkpt lat="44.21341" lon="5.08537">
        <ele>370.73</ele>
        <time>2017-10-30T08:42:49Z</time>
      </trkpt>
      <trkpt lat="44.21323" lon="5.08543">
        <ele>371.69</ele>
        <time>2017-10-30T08:43:07Z</time>
      </trkpt>
      <trkpt lat="44.21301" lon="5.08554">
        <ele>371.69</ele>
        <time>2017-10-30T08:43:26Z</time>
      </trkpt>
      <trkpt lat="44.21292" lon="5.08558">
        <ele>370.24</ele>
        <time>2017-10-30T08:43:35Z</time>
      </trkpt>
      <trkpt lat="44.21275" lon="5.08564">
        <ele>369.76</ele>
        <time>2017-10-30T08:43:52Z</time>
      </trkpt>
      <trkpt lat="44.21255" lon="5.08568">
        <ele>369.28</ele>
        <time>2017-10-30T08:44:12Z</time>
      </trkpt>
      <trkpt lat="44.21234" lon="5.08573">
        <ele>370.24</ele>
        <time>2017-10-30T08:44:31Z</time>
      </trkpt>
      <trkpt lat="44.21215" lon="5.08576">
        <ele>370.73</ele>
        <time>2017-10-30T08:44:49Z</time>
      </trkpt>
      <trkpt lat="44.21208" lon="5.0858">
        <ele>371.21</ele>
        <time>2017-10-30T08:45:06Z</time>
      </trkpt>
      <trkpt lat="44.21197" lon="5.08583">
        <ele>371.69</ele>
        <time>2017-10-30T08:45:21Z</time>
      </trkpt>
      <trkpt lat="44.21178" lon="5.08593">
        <ele>371.69</ele>
        <time>2017-10-30T08:45:41Z</time>
      </trkpt>
      <trkpt lat="44.2116" lon="5.08601">
        <ele>371.69</ele>
        <time>2017-10-30T08:45:58Z</time>
      </trkpt>
      <trkpt lat="44.21144" lon="5.08613">
        <ele>371.21</ele>
        <time>2017-10-30T08:46:15Z</time>
      </trkpt>
      <trkpt lat="44.21129" lon="5.08619">
        <ele>371.21</ele>
        <time>2017-10-30T08:46:30Z</time>
      </trkpt>
      <trkpt lat="44.21113" lon="5.08625">
        <ele>369.76</ele>
        <time>2017-10-30T08:46:48Z</time>
      </trkpt>
      <trkpt lat="44.21096" lon="5.08636">
        <ele>368.8</ele>
        <time>2017-10-30T08:47:05Z</time>
      </trkpt>
      <trkpt lat="44.21079" lon="5.08651">
        <ele>368.32</ele>
        <time>2017-10-30T08:47:22Z</time>
      </trkpt>
      <trkpt lat="44.21063" lon="5.08659">
        <ele>367.84</ele>
        <time>2017-10-30T08:47:40Z</time>
      </trkpt>
      <trkpt lat="44.21042" lon="5.08671">
        <ele>367.36</ele>
        <time>2017-10-30T08:47:59Z</time>
      </trkpt>
      <trkpt lat="44.21026" lon="5.0868">
        <ele>367.36</ele>
        <time>2017-10-30T08:48:15Z</time>
      </trkpt>
      <trkpt lat="44.21015" lon="5.08688">
        <ele>367.36</ele>
        <time>2017-10-30T08:48:25Z</time>
      </trkpt>
      <trkpt lat="44.20994" lon="5.08702">
        <ele>367.36</ele>
        <time>2017-10-30T08:48:43Z</time>
      </trkpt>
      <trkpt lat="44.20976" lon="5.08718">
        <ele>366.88</ele>
        <time>2017-10-30T08:49:03Z</time>
      </trkpt>
      <trkpt lat="44.20966" lon="5.08722">
        <ele>366.88</ele>
        <time>2017-10-30T08:49:12Z</time>
      </trkpt>
      <trkpt lat="44.20948" lon="5.08728">
        <ele>366.88</ele>
        <time>2017-10-30T08:49:29Z</time>
      </trkpt>
      <trkpt lat="44.20939" lon="5.08748">
        <ele>365.44</ele>
        <time>2017-10-30T08:49:49Z</time>
      </trkpt>
      <trkpt lat="44.20938" lon="5.08758">
        <ele>364.96</ele>
        <time>2017-10-30T08:49:57Z</time>
      </trkpt>
      <trkpt lat="44.20938" lon="5.08771">
        <ele>364</ele>
        <time>2017-10-30T08:50:06Z</time>
      </trkpt>
      <trkpt lat="44.20925" lon="5.0879">
        <ele>362.07</ele>
        <time>2017-10-30T08:50:25Z</time>
      </trkpt>
      <trkpt lat="44.20909" lon="5.08801">
        <ele>362.07</ele>
        <time>2017-10-30T08:50:42Z</time>
      </trkpt>
      <trkpt lat="44.20899" lon="5.0881">
        <ele>362.07</ele>
        <time>2017-10-30T08:50:58Z</time>
      </trkpt>
      <trkpt lat="44.20882" lon="5.08816">
        <ele>362.07</ele>
        <time>2017-10-30T08:51:18Z</time>
      </trkpt>
      <trkpt lat="44.20878" lon="5.08818">
        <ele>363.04</ele>
        <time>2017-10-30T08:51:22Z</time>
      </trkpt>
      <trkpt lat="44.2086" lon="5.08825">
        <ele>363.52</ele>
        <time>2017-10-30T08:51:42Z</time>
      </trkpt>
      <trkpt lat="44.20852" lon="5.08828">
        <ele>363.52</ele>
        <time>2017-10-30T08:51:50Z</time>
      </trkpt>
      <trkpt lat="44.20844" lon="5.08831">
        <ele>363.52</ele>
        <time>2017-10-30T08:51:55Z</time>
      </trkpt>
      <trkpt lat="44.20828" lon="5.08847">
        <ele>364</ele>
        <time>2017-10-30T08:52:13Z</time>
      </trkpt>
      <trkpt lat="44.20813" lon="5.08862">
        <ele>363.52</ele>
        <time>2017-10-30T08:52:30Z</time>
      </trkpt>
      <trkpt lat="44.20793" lon="5.0888">
        <ele>365.44</ele>
        <time>2017-10-30T08:52:52Z</time>
      </trkpt>
      <trkpt lat="44.20776" lon="5.08895">
        <ele>365.92</ele>
        <time>2017-10-30T08:53:11Z</time>
      </trkpt>
      <trkpt lat="44.20756" lon="5.08911">
        <ele>366.88</ele>
        <time>2017-10-30T08:53:33Z</time>
      </trkpt>
      <trkpt lat="44.20755" lon="5.08913">
        <ele>366.4</ele>
        <time>2017-10-30T08:53:46Z</time>
      </trkpt>
      <trkpt lat="44.20754" lon="5.08912">
        <ele>366.4</ele>
        <time>2017-10-30T08:54:04Z</time>
      </trkpt>
      <trkpt lat="44.20738" lon="5.0892">
        <ele>364.48</ele>
        <time>2017-10-30T08:54:23Z</time>
      </trkpt>
      <trkpt lat="44.20718" lon="5.08923">
        <ele>362.55</ele>
        <time>2017-10-30T08:54:44Z</time>
      </trkpt>
      <trkpt lat="44.20701" lon="5.08927">
        <ele>361.11</ele>
        <time>2017-10-30T08:55:02Z</time>
      </trkpt>
      <trkpt lat="44.2069" lon="5.08932">
        <ele>360.63</ele>
        <time>2017-10-30T08:55:14Z</time>
      </trkpt>
      <trkpt lat="44.20675" lon="5.08945">
        <ele>359.67</ele>
        <time>2017-10-30T08:55:29Z</time>
      </trkpt>
      <trkpt lat="44.20659" lon="5.08949">
        <ele>359.67</ele>
        <time>2017-10-30T08:55:44Z</time>
      </trkpt>
      <trkpt lat="44.20637" lon="5.08955">
        <ele>359.19</ele>
        <time>2017-10-30T08:56:01Z</time>
      </trkpt>
      <trkpt lat="44.20614" lon="5.08961">
        <ele>359.19</ele>
        <time>2017-10-30T08:56:22Z</time>
      </trkpt>
      <trkpt lat="44.206" lon="5.08965">
        <ele>360.63</ele>
        <time>2017-10-30T08:56:38Z</time>
      </trkpt>
      <trkpt lat="44.20598" lon="5.08966">
        <ele>360.63</ele>
        <time>2017-10-30T08:56:40Z</time>
      </trkpt>
      <trkpt lat="44.20585" lon="5.08967">
        <ele>360.63</ele>
        <time>2017-10-30T08:56:52Z</time>
      </trkpt>
      <trkpt lat="44.20575" lon="5.0897">
        <ele>361.59</ele>
        <time>2017-10-30T08:57:08Z</time>
      </trkpt>
      <trkpt lat="44.20575" lon="5.08973">
        <ele>363.52</ele>
        <time>2017-10-30T08:57:18Z</time>
      </trkpt>
      <trkpt lat="44.2056" lon="5.08979">
        <ele>361.59</ele>
        <time>2017-10-30T08:57:35Z</time>
      </trkpt>
      <trkpt lat="44.20546" lon="5.08984">
        <ele>360.15</ele>
        <time>2017-10-30T08:57:51Z</time>
      </trkpt>
      <trkpt lat="44.2053" lon="5.0899">
        <ele>357.75</ele>
        <time>2017-10-30T08:58:10Z</time>
      </trkpt>
      <trkpt lat="44.20517" lon="5.08993">
        <ele>356.31</ele>
        <time>2017-10-30T08:58:25Z</time>
      </trkpt>
      <trkpt lat="44.20498" lon="5.09">
        <ele>355.34</ele>
        <time>2017-10-30T08:58:44Z</time>
      </trkpt>
      <trkpt lat="44.20478" lon="5.09005">
        <ele>353.9</ele>
        <time>2017-10-30T08:59:02Z</time>
      </trkpt>
      <trkpt lat="44.2046" lon="5.09006">
        <ele>353.9</ele>
        <time>2017-10-30T08:59:19Z</time>
      </trkpt>
      <trkpt lat="44.20439" lon="5.09006">
        <ele>353.9</ele>
        <time>2017-10-30T08:59:38Z</time>
      </trkpt>
      <trkpt lat="44.20419" lon="5.09006">
        <ele>353.42</ele>
        <time>2017-10-30T08:59:57Z</time>
      </trkpt>
      <trkpt lat="44.20403" lon="5.09003">
        <ele>352.94</ele>
        <time>2017-10-30T09:00:12Z</time>
      </trkpt>
      <trkpt lat="44.20384" lon="5.09002">
        <ele>352.94</ele>
        <time>2017-10-30T09:00:30Z</time>
      </trkpt>
      <trkpt lat="44.20367" lon="5.08999">
        <ele>352.94</ele>
        <time>2017-10-30T09:00:45Z</time>
      </trkpt>
      <trkpt lat="44.20359" lon="5.08996">
        <ele>352.94</ele>
        <time>2017-10-30T09:00:52Z</time>
      </trkpt>
      <trkpt lat="44.20344" lon="5.08987">
        <ele>353.9</ele>
        <time>2017-10-30T09:01:07Z</time>
      </trkpt>
      <trkpt lat="44.20337" lon="5.09002">
        <ele>353.9</ele>
        <time>2017-10-30T09:01:23Z</time>
      </trkpt>
      <trkpt lat="44.20336" lon="5.09007">
        <ele>353.9</ele>
        <time>2017-10-30T09:01:26Z</time>
      </trkpt>
      <trkpt lat="44.20333" lon="5.09027">
        <ele>353.9</ele>
        <time>2017-10-30T09:01:41Z</time>
      </trkpt>
      <trkpt lat="44.20332" lon="5.09031">
        <ele>352.46</ele>
        <time>2017-10-30T09:01:44Z</time>
      </trkpt>
      <trkpt lat="44.20325" lon="5.09044">
        <ele>351.02</ele>
        <time>2017-10-30T09:02:01Z</time>
      </trkpt>
      <trkpt lat="44.20319" lon="5.09066">
        <ele>349.1</ele>
        <time>2017-10-30T09:02:18Z</time>
      </trkpt>
      <trkpt lat="44.20316" lon="5.09084">
        <ele>348.13</ele>
        <time>2017-10-30T09:02:33Z</time>
      </trkpt>
      <trkpt lat="44.20311" lon="5.09105">
        <ele>345.73</ele>
        <time>2017-10-30T09:02:53Z</time>
      </trkpt>
      <trkpt lat="44.20313" lon="5.09123">
        <ele>343.81</ele>
        <time>2017-10-30T09:03:10Z</time>
      </trkpt>
      <trkpt lat="44.20314" lon="5.09141">
        <ele>341.89</ele>
        <time>2017-10-30T09:03:27Z</time>
      </trkpt>
      <trkpt lat="44.20313" lon="5.0916">
        <ele>341.89</ele>
        <time>2017-10-30T09:03:44Z</time>
      </trkpt>
      <trkpt lat="44.2031" lon="5.09183">
        <ele>340.92</ele>
        <time>2017-10-30T09:04:04Z</time>
      </trkpt>
      <trkpt lat="44.20307" lon="5.09195">
        <ele>340.92</ele>
        <time>2017-10-30T09:04:19Z</time>
      </trkpt>
      <trkpt lat="44.20307" lon="5.09216">
        <ele>340.44</ele>
        <time>2017-10-30T09:04:35Z</time>
      </trkpt>
      <trkpt lat="44.20312" lon="5.09248">
        <ele>339.48</ele>
        <time>2017-10-30T09:04:59Z</time>
      </trkpt>
      <trkpt lat="44.20316" lon="5.09255">
        <ele>339.48</ele>
        <time>2017-10-30T09:05:08Z</time>
      </trkpt>
      <trkpt lat="44.20318" lon="5.09257">
        <ele>341.41</ele>
        <time>2017-10-30T09:05:11Z</time>
      </trkpt>
      <trkpt lat="44.20319" lon="5.09257">
        <ele>337.08</ele>
        <time>2017-10-30T09:05:12Z</time>
      </trkpt>
      <trkpt lat="44.20319" lon="5.09258">
        <ele>341.89</ele>
        <time>2017-10-30T09:05:13Z</time>
      </trkpt>
      <trkpt lat="44.20323" lon="5.09263">
        <ele>338.52</ele>
        <time>2017-10-30T09:05:17Z</time>
      </trkpt>
      <trkpt lat="44.20339" lon="5.09276">
        <ele>337.56</ele>
        <time>2017-10-30T09:05:35Z</time>
      </trkpt>
      <trkpt lat="44.20352" lon="5.09295">
        <ele>336.12</ele>
        <time>2017-10-30T09:05:54Z</time>
      </trkpt>
      <trkpt lat="44.20363" lon="5.09309">
        <ele>334.68</ele>
        <time>2017-10-30T09:06:10Z</time>
      </trkpt>
      <trkpt lat="44.20372" lon="5.09324">
        <ele>333.71</ele>
        <time>2017-10-30T09:06:24Z</time>
      </trkpt>
      <trkpt lat="44.20376" lon="5.09345">
        <ele>331.31</ele>
        <time>2017-10-30T09:06:43Z</time>
      </trkpt>
      <trkpt lat="44.20379" lon="5.09362">
        <ele>328.91</ele>
        <time>2017-10-30T09:07:00Z</time>
      </trkpt>
      <trkpt lat="44.20376" lon="5.0938">
        <ele>326.99</ele>
        <time>2017-10-30T09:07:17Z</time>
      </trkpt>
      <trkpt lat="44.20377" lon="5.09403">
        <ele>324.58</ele>
        <time>2017-10-30T09:07:35Z</time>
      </trkpt>
      <trkpt lat="44.20383" lon="5.09418">
        <ele>323.14</ele>
        <time>2017-10-30T09:07:53Z</time>
      </trkpt>
      <trkpt lat="44.20387" lon="5.09415">
        <ele>321.7</ele>
        <time>2017-10-30T09:08:10Z</time>
      </trkpt>
      <trkpt lat="44.20394" lon="5.09395">
        <ele>320.74</ele>
        <time>2017-10-30T09:08:27Z</time>
      </trkpt>
      <trkpt lat="44.20404" lon="5.09373">
        <ele>318.33</ele>
        <time>2017-10-30T09:08:47Z</time>
      </trkpt>
      <trkpt lat="44.20411" lon="5.09363">
        <ele>316.89</ele>
        <time>2017-10-30T09:09:03Z</time>
      </trkpt>
      <trkpt lat="44.20406" lon="5.09384">
        <ele>315.93</ele>
        <time>2017-10-30T09:09:20Z</time>
      </trkpt>
      <trkpt lat="44.20405" lon="5.0941">
        <ele>314.49</ele>
        <time>2017-10-30T09:09:37Z</time>
      </trkpt>
      <trkpt lat="44.20406" lon="5.09437">
        <ele>313.05</ele>
        <time>2017-10-30T09:09:56Z</time>
      </trkpt>
      <trkpt lat="44.20406" lon="5.09446">
        <ele>312.57</ele>
        <time>2017-10-30T09:10:12Z</time>
      </trkpt>
      <trkpt lat="44.20401" lon="5.09455">
        <ele>312.09</ele>
        <time>2017-10-30T09:10:33Z</time>
      </trkpt>
      <trkpt lat="44.20399" lon="5.09463">
        <ele>311.6</ele>
        <time>2017-10-30T09:10:54Z</time>
      </trkpt>
      <trkpt lat="44.20398" lon="5.09474">
        <ele>310.16</ele>
        <time>2017-10-30T09:11:12Z</time>
      </trkpt>
      <trkpt lat="44.20398" lon="5.09474">
        <ele>313.05</ele>
        <time>2017-10-30T09:11:16Z</time>
      </trkpt>
      <trkpt lat="44.2039" lon="5.09485">
        <ele>310.64</ele>
        <time>2017-10-30T09:11:30Z</time>
      </trkpt>
      <trkpt lat="44.20377" lon="5.09496">
        <ele>309.68</ele>
        <time>2017-10-30T09:11:46Z</time>
      </trkpt>
      <trkpt lat="44.20364" lon="5.09507">
        <ele>309.68</ele>
        <time>2017-10-30T09:12:02Z</time>
      </trkpt>
      <trkpt lat="44.20359" lon="5.0951">
        <ele>309.68</ele>
        <time>2017-10-30T09:12:09Z</time>
      </trkpt>
      <trkpt lat="44.20352" lon="5.09517">
        <ele>308.24</ele>
        <time>2017-10-30T09:12:21Z</time>
      </trkpt>
      <trkpt lat="44.20351" lon="5.09519">
        <ele>308.24</ele>
        <time>2017-10-30T09:12:24Z</time>
      </trkpt>
      <trkpt lat="44.2035" lon="5.09522">
        <ele>306.32</ele>
        <time>2017-10-30T09:12:26Z</time>
      </trkpt>
      <trkpt lat="44.20348" lon="5.09524">
        <ele>310.16</ele>
        <time>2017-10-30T09:12:28Z</time>
      </trkpt>
      <trkpt lat="44.20348" lon="5.09524">
        <ele>307.76</ele>
        <time>2017-10-30T09:12:29Z</time>
      </trkpt>
      <trkpt lat="44.20331" lon="5.09543">
        <ele>306.8</ele>
        <time>2017-10-30T09:12:49Z</time>
      </trkpt>
      <trkpt lat="44.20322" lon="5.09552">
        <ele>305.84</ele>
        <time>2017-10-30T09:13:01Z</time>
      </trkpt>
      <trkpt lat="44.20303" lon="5.09561">
        <ele>305.36</ele>
        <time>2017-10-30T09:13:20Z</time>
      </trkpt>
      <trkpt lat="44.20289" lon="5.09563">
        <ele>307.28</ele>
        <time>2017-10-30T09:13:35Z</time>
      </trkpt>
      <trkpt lat="44.20273" lon="5.09565">
        <ele>309.2</ele>
        <time>2017-10-30T09:13:53Z</time>
      </trkpt>
      <trkpt lat="44.20261" lon="5.09568">
        <ele>309.2</ele>
        <time>2017-10-30T09:14:04Z</time>
      </trkpt>
      <trkpt lat="44.2025" lon="5.09569">
        <ele>309.68</ele>
        <time>2017-10-30T09:14:16Z</time>
      </trkpt>
      <trkpt lat="44.20236" lon="5.09569">
        <ele>309.2</ele>
        <time>2017-10-30T09:14:32Z</time>
      </trkpt>
      <trkpt lat="44.2023" lon="5.09569">
        <ele>308.24</ele>
        <time>2017-10-30T09:14:48Z</time>
      </trkpt>
      <trkpt lat="44.20231" lon="5.0957">
        <ele>307.28</ele>
        <time>2017-10-30T09:15:05Z</time>
      </trkpt>
      <trkpt lat="44.20231" lon="5.09575">
        <ele>306.8</ele>
        <time>2017-10-30T09:15:20Z</time>
      </trkpt>
      <trkpt lat="44.20234" lon="5.09581">
        <ele>306.8</ele>
        <time>2017-10-30T09:15:49Z</time>
      </trkpt>
      <trkpt lat="44.20232" lon="5.0958">
        <ele>306.8</ele>
        <time>2017-10-30T09:16:24Z</time>
      </trkpt>
      <trkpt lat="44.20233" lon="5.09578">
        <ele>306.8</ele>
        <time>2017-10-30T09:16:51Z</time>
      </trkpt>
      <trkpt lat="44.20232" lon="5.09582">
        <ele>306.32</ele>
        <time>2017-10-30T09:17:28Z</time>
      </trkpt>
      <trkpt lat="44.20232" lon="5.0958">
        <ele>306.32</ele>
        <time>2017-10-30T09:17:57Z</time>
      </trkpt>
      <trkpt lat="44.20233" lon="5.09579">
        <ele>306.32</ele>
        <time>2017-10-30T09:18:26Z</time>
      </trkpt>
      <trkpt lat="44.2023" lon="5.09583">
        <ele>306.32</ele>
        <time>2017-10-30T09:18:56Z</time>
      </trkpt>
      <trkpt lat="44.2023" lon="5.09582">
        <ele>305.84</ele>
        <time>2017-10-30T09:19:33Z</time>
      </trkpt>
      <trkpt lat="44.20231" lon="5.09581">
        <ele>305.84</ele>
        <time>2017-10-30T09:20:04Z</time>
      </trkpt>
      <trkpt lat="44.2023" lon="5.09584">
        <ele>305.84</ele>
        <time>2017-10-30T09:20:40Z</time>
      </trkpt>
      <trkpt lat="44.2023" lon="5.09582">
        <ele>305.84</ele>
        <time>2017-10-30T09:21:20Z</time>
      </trkpt>
      <trkpt lat="44.20231" lon="5.09586">
        <ele>305.84</ele>
        <time>2017-10-30T09:21:55Z</time>
      </trkpt>
      <trkpt lat="44.2023" lon="5.0959">
        <ele>305.84</ele>
        <time>2017-10-30T09:22:25Z</time>
      </trkpt>
      <trkpt lat="44.20232" lon="5.09585">
        <ele>305.84</ele>
        <time>2017-10-30T09:22:57Z</time>
      </trkpt>
      <trkpt lat="44.20235" lon="5.09587">
        <ele>305.84</ele>
        <time>2017-10-30T09:23:34Z</time>
      </trkpt>
      <trkpt lat="44.20235" lon="5.09583">
        <ele>306.32</ele>
        <time>2017-10-30T09:24:08Z</time>
      </trkpt>
      <trkpt lat="44.20233" lon="5.09583">
        <ele>306.32</ele>
        <time>2017-10-30T09:24:39Z</time>
      </trkpt>
      <trkpt lat="44.20232" lon="5.09587">
        <ele>306.32</ele>
        <time>2017-10-30T09:25:13Z</time>
      </trkpt>
      <trkpt lat="44.20232" lon="5.09588">
        <ele>306.32</ele>
        <time>2017-10-30T09:25:49Z</time>
      </trkpt>
      <trkpt lat="44.20232" lon="5.09584">
        <ele>306.32</ele>
        <time>2017-10-30T09:26:28Z</time>
      </trkpt>
      <trkpt lat="44.20233" lon="5.09583">
        <ele>306.32</ele>
        <time>2017-10-30T09:27:09Z</time>
      </trkpt>
      <trkpt lat="44.20232" lon="5.09584">
        <ele>306.32</ele>
        <time>2017-10-30T09:27:55Z</time>
      </trkpt>
      <trkpt lat="44.20232" lon="5.09585">
        <ele>306.8</ele>
        <time>2017-10-30T09:28:31Z</time>
      </trkpt>
      <trkpt lat="44.20232" lon="5.09585">
        <ele>302.95</ele>
        <time>2017-10-30T09:28:34Z</time>
      </trkpt>
      <trkpt lat="44.20232" lon="5.09585">
        <ele>312.09</ele>
        <time>2017-10-30T09:28:35Z</time>
      </trkpt>
      <trkpt lat="44.20233" lon="5.09585">
        <ele>308.72</ele>
        <time>2017-10-30T09:28:36Z</time>
      </trkpt>
      <trkpt lat="44.20233" lon="5.09581">
        <ele>307.76</ele>
        <time>2017-10-30T09:28:49Z</time>
      </trkpt>
      <trkpt lat="44.20233" lon="5.0958">
        <ele>308.24</ele>
        <time>2017-10-30T09:29:02Z</time>
      </trkpt>
      <trkpt lat="44.20234" lon="5.09578">
        <ele>309.2</ele>
        <time>2017-10-30T09:29:15Z</time>
      </trkpt>
      <trkpt lat="44.20234" lon="5.09583">
        <ele>307.76</ele>
        <time>2017-10-30T09:29:36Z</time>
      </trkpt>
      <trkpt lat="44.20229" lon="5.09583">
        <ele>307.76</ele>
        <time>2017-10-30T09:30:04Z</time>
      </trkpt>
      <trkpt lat="44.20215" lon="5.09586">
        <ele>306.8</ele>
        <time>2017-10-30T09:30:23Z</time>
      </trkpt>
      <trkpt lat="44.20199" lon="5.09592">
        <ele>303.91</ele>
        <time>2017-10-30T09:30:43Z</time>
      </trkpt>
      <trkpt lat="44.20182" lon="5.09605">
        <ele>301.03</ele>
        <time>2017-10-30T09:31:05Z</time>
      </trkpt>
      <trkpt lat="44.20169" lon="5.09609">
        <ele>298.63</ele>
        <time>2017-10-30T09:31:24Z</time>
      </trkpt>
      <trkpt lat="44.2016" lon="5.09609">
        <ele>296.7</ele>
        <time>2017-10-30T09:31:39Z</time>
      </trkpt>
      <trkpt lat="44.2016" lon="5.09613">
        <ele>295.74</ele>
        <time>2017-10-30T09:31:52Z</time>
      </trkpt>
      <trkpt lat="44.20162" lon="5.09613">
        <ele>295.74</ele>
        <time>2017-10-30T09:32:13Z</time>
      </trkpt>
      <trkpt lat="44.20161" lon="5.09614">
        <ele>295.74</ele>
        <time>2017-10-30T09:32:18Z</time>
      </trkpt>
      <trkpt lat="44.20167" lon="5.09619">
        <ele>295.26</ele>
        <time>2017-10-30T09:32:31Z</time>
      </trkpt>
      <trkpt lat="44.20178" lon="5.09626">
        <ele>293.82</ele>
        <time>2017-10-30T09:32:46Z</time>
      </trkpt>
      <trkpt lat="44.20188" lon="5.09636">
        <ele>291.42</ele>
        <time>2017-10-30T09:33:03Z</time>
      </trkpt>
      <trkpt lat="44.20198" lon="5.09646">
        <ele>290.46</ele>
        <time>2017-10-30T09:33:21Z</time>
      </trkpt>
      <trkpt lat="44.2021" lon="5.09656">
        <ele>288.53</ele>
        <time>2017-10-30T09:33:36Z</time>
      </trkpt>
      <trkpt lat="44.20229" lon="5.09666">
        <ele>287.09</ele>
        <time>2017-10-30T09:33:58Z</time>
      </trkpt>
      <trkpt lat="44.2025" lon="5.09681">
        <ele>285.65</ele>
        <time>2017-10-30T09:34:22Z</time>
      </trkpt>
      <trkpt lat="44.20262" lon="5.0969">
        <ele>284.69</ele>
        <time>2017-10-30T09:34:36Z</time>
      </trkpt>
      <trkpt lat="44.20279" lon="5.0971">
        <ele>284.21</ele>
        <time>2017-10-30T09:34:55Z</time>
      </trkpt>
      <trkpt lat="44.20296" lon="5.09736">
        <ele>283.73</ele>
        <time>2017-10-30T09:35:18Z</time>
      </trkpt>
      <trkpt lat="44.2031" lon="5.09756">
        <ele>282.77</ele>
        <time>2017-10-30T09:35:39Z</time>
      </trkpt>
      <trkpt lat="44.20326" lon="5.09776">
        <ele>280.84</ele>
        <time>2017-10-30T09:36:01Z</time>
      </trkpt>
      <trkpt lat="44.20329" lon="5.09779">
        <ele>280.84</ele>
        <time>2017-10-30T09:36:05Z</time>
      </trkpt>
      <trkpt lat="44.20331" lon="5.09782">
        <ele>282.77</ele>
        <time>2017-10-30T09:36:07Z</time>
      </trkpt>
      <trkpt lat="44.2034" lon="5.09793">
        <ele>279.88</ele>
        <time>2017-10-30T09:36:25Z</time>
      </trkpt>
      <trkpt lat="44.20339" lon="5.09796">
        <ele>279.88</ele>
        <time>2017-10-30T09:36:41Z</time>
      </trkpt>
      <trkpt lat="44.20329" lon="5.09795">
        <ele>279.88</ele>
        <time>2017-10-30T09:36:58Z</time>
      </trkpt>
      <trkpt lat="44.20315" lon="5.09792">
        <ele>279.4</ele>
        <time>2017-10-30T09:37:15Z</time>
      </trkpt>
      <trkpt lat="44.20298" lon="5.09784">
        <ele>278.44</ele>
        <time>2017-10-30T09:37:35Z</time>
      </trkpt>
      <trkpt lat="44.20279" lon="5.09781">
        <ele>277</ele>
        <time>2017-10-30T09:37:55Z</time>
      </trkpt>
      <trkpt lat="44.20255" lon="5.09785">
        <ele>276.52</ele>
        <time>2017-10-30T09:38:16Z</time>
      </trkpt>
      <trkpt lat="44.20242" lon="5.098">
        <ele>275.56</ele>
        <time>2017-10-30T09:38:35Z</time>
      </trkpt>
      <trkpt lat="44.20242" lon="5.098">
        <ele>275.56</ele>
        <time>2017-10-30T09:38:52Z</time>
      </trkpt>
      <trkpt lat="44.20234" lon="5.09806">
        <ele>275.56</ele>
        <time>2017-10-30T09:39:07Z</time>
      </trkpt>
      <trkpt lat="44.2022" lon="5.09799">
        <ele>275.56</ele>
        <time>2017-10-30T09:39:23Z</time>
      </trkpt>
      <trkpt lat="44.20203" lon="5.09799">
        <ele>277</ele>
        <time>2017-10-30T09:39:39Z</time>
      </trkpt>
      <trkpt lat="44.20187" lon="5.09799">
        <ele>277.48</ele>
        <time>2017-10-30T09:39:56Z</time>
      </trkpt>
      <trkpt lat="44.20168" lon="5.09798">
        <ele>277.48</ele>
        <time>2017-10-30T09:40:14Z</time>
      </trkpt>
      <trkpt lat="44.20153" lon="5.09788">
        <ele>277.48</ele>
        <time>2017-10-30T09:40:32Z</time>
      </trkpt>
      <trkpt lat="44.20136" lon="5.09776">
        <ele>278.92</ele>
        <time>2017-10-30T09:40:51Z</time>
      </trkpt>
      <trkpt lat="44.20123" lon="5.09763">
        <ele>280.36</ele>
        <time>2017-10-30T09:41:09Z</time>
      </trkpt>
      <trkpt lat="44.20106" lon="5.09752">
        <ele>281.8</ele>
        <time>2017-10-30T09:41:28Z</time>
      </trkpt>
      <trkpt lat="44.20081" lon="5.09743">
        <ele>282.28</ele>
        <time>2017-10-30T09:41:49Z</time>
      </trkpt>
      <trkpt lat="44.20068" lon="5.0974">
        <ele>282.77</ele>
        <time>2017-10-30T09:42:01Z</time>
      </trkpt>
      <trkpt lat="44.20049" lon="5.09736">
        <ele>284.69</ele>
        <time>2017-10-30T09:42:22Z</time>
      </trkpt>
      <trkpt lat="44.20035" lon="5.09738">
        <ele>286.61</ele>
        <time>2017-10-30T09:42:37Z</time>
      </trkpt>
      <trkpt lat="44.20017" lon="5.09745">
        <ele>288.05</ele>
        <time>2017-10-30T09:42:56Z</time>
      </trkpt>
      <trkpt lat="44.19999" lon="5.09736">
        <ele>289.97</ele>
        <time>2017-10-30T09:43:18Z</time>
      </trkpt>
      <trkpt lat="44.19978" lon="5.09734">
        <ele>290.94</ele>
        <time>2017-10-30T09:43:39Z</time>
      </trkpt>
      <trkpt lat="44.19959" lon="5.09734">
        <ele>293.82</ele>
        <time>2017-10-30T09:44:00Z</time>
      </trkpt>
      <trkpt lat="44.19958" lon="5.09732">
        <ele>294.78</ele>
        <time>2017-10-30T09:44:15Z</time>
      </trkpt>
      <trkpt lat="44.19954" lon="5.09733">
        <ele>289.49</ele>
        <time>2017-10-30T09:44:31Z</time>
      </trkpt>
      <trkpt lat="44.19953" lon="5.09734">
        <ele>300.07</ele>
        <time>2017-10-30T09:44:32Z</time>
      </trkpt>
      <trkpt lat="44.19953" lon="5.09734">
        <ele>294.78</ele>
        <time>2017-10-30T09:44:33Z</time>
      </trkpt>
      <trkpt lat="44.19949" lon="5.09735">
        <ele>294.78</ele>
        <time>2017-10-30T09:44:46Z</time>
      </trkpt>
      <trkpt lat="44.19949" lon="5.09732">
        <ele>294.78</ele>
        <time>2017-10-30T09:45:03Z</time>
      </trkpt>
      <trkpt lat="44.19942" lon="5.09723">
        <ele>296.22</ele>
        <time>2017-10-30T09:45:25Z</time>
      </trkpt>
      <trkpt lat="44.19932" lon="5.09716">
        <ele>297.18</ele>
        <time>2017-10-30T09:45:39Z</time>
      </trkpt>
      <trkpt lat="44.19919" lon="5.09709">
        <ele>298.15</ele>
        <time>2017-10-30T09:45:55Z</time>
      </trkpt>
      <trkpt lat="44.19905" lon="5.09702">
        <ele>297.67</ele>
        <time>2017-10-30T09:46:13Z</time>
      </trkpt>
      <trkpt lat="44.1989" lon="5.09693">
        <ele>297.67</ele>
        <time>2017-10-30T09:46:29Z</time>
      </trkpt>
      <trkpt lat="44.19885" lon="5.0969">
        <ele>297.67</ele>
        <time>2017-10-30T09:46:35Z</time>
      </trkpt>
      <trkpt lat="44.1987" lon="5.09682">
        <ele>297.67</ele>
        <time>2017-10-30T09:46:54Z</time>
      </trkpt>
      <trkpt lat="44.19862" lon="5.0968">
        <ele>297.67</ele>
        <time>2017-10-30T09:47:10Z</time>
      </trkpt>
      <trkpt lat="44.19851" lon="5.09676">
        <ele>298.15</ele>
        <time>2017-10-30T09:47:26Z</time>
      </trkpt>
      <trkpt lat="44.19846" lon="5.09675">
        <ele>298.63</ele>
        <time>2017-10-30T09:47:46Z</time>
      </trkpt>
      <trkpt lat="44.19833" lon="5.09671">
        <ele>300.55</ele>
        <time>2017-10-30T09:48:03Z</time>
      </trkpt>
      <trkpt lat="44.19821" lon="5.0967">
        <ele>301.03</ele>
        <time>2017-10-30T09:48:17Z</time>
      </trkpt>
      <trkpt lat="44.19803" lon="5.09667">
        <ele>301.51</ele>
        <time>2017-10-30T09:48:36Z</time>
      </trkpt>
      <trkpt lat="44.1979" lon="5.09664">
        <ele>303.43</ele>
        <time>2017-10-30T09:48:53Z</time>
      </trkpt>
      <trkpt lat="44.19774" lon="5.09659">
        <ele>304.39</ele>
        <time>2017-10-30T09:49:11Z</time>
      </trkpt>
      <trkpt lat="44.19756" lon="5.09653">
        <ele>305.84</ele>
        <time>2017-10-30T09:49:31Z</time>
      </trkpt>
      <trkpt lat="44.19741" lon="5.09643">
        <ele>306.32</ele>
        <time>2017-10-30T09:49:51Z</time>
      </trkpt>
      <trkpt lat="44.19724" lon="5.09627">
        <ele>307.76</ele>
        <time>2017-10-30T09:50:12Z</time>
      </trkpt>
      <trkpt lat="44.1971" lon="5.09602">
        <ele>308.24</ele>
        <time>2017-10-30T09:50:33Z</time>
      </trkpt>
      <trkpt lat="44.19698" lon="5.09585">
        <ele>309.2</ele>
        <time>2017-10-30T09:50:50Z</time>
      </trkpt>
      <trkpt lat="44.1968" lon="5.09576">
        <ele>307.76</ele>
        <time>2017-10-30T09:51:08Z</time>
      </trkpt>
      <trkpt lat="44.19669" lon="5.09569">
        <ele>311.12</ele>
        <time>2017-10-30T09:51:22Z</time>
      </trkpt>
      <trkpt lat="44.19655" lon="5.09557">
        <ele>311.12</ele>
        <time>2017-10-30T09:51:40Z</time>
      </trkpt>
      <trkpt lat="44.19643" lon="5.0954">
        <ele>312.09</ele>
        <time>2017-10-30T09:51:58Z</time>
      </trkpt>
      <trkpt lat="44.19627" lon="5.09515">
        <ele>311.6</ele>
        <time>2017-10-30T09:52:19Z</time>
      </trkpt>
      <trkpt lat="44.19609" lon="5.09493">
        <ele>312.57</ele>
        <time>2017-10-30T09:52:41Z</time>
      </trkpt>
      <trkpt lat="44.19595" lon="5.09495">
        <ele>315.93</ele>
        <time>2017-10-30T09:52:59Z</time>
      </trkpt>
      <trkpt lat="44.19585" lon="5.0951">
        <ele>317.37</ele>
        <time>2017-10-30T09:53:16Z</time>
      </trkpt>
      <trkpt lat="44.19577" lon="5.09516">
        <ele>319.78</ele>
        <time>2017-10-30T09:53:31Z</time>
      </trkpt>
      <trkpt lat="44.19575" lon="5.09515">
        <ele>320.26</ele>
        <time>2017-10-30T09:53:46Z</time>
      </trkpt>
      <trkpt lat="44.19572" lon="5.09512">
        <ele>319.3</ele>
        <time>2017-10-30T09:54:04Z</time>
      </trkpt>
      <trkpt lat="44.19567" lon="5.09499">
        <ele>319.3</ele>
        <time>2017-10-30T09:54:19Z</time>
      </trkpt>
      <trkpt lat="44.19564" lon="5.09481">
        <ele>321.7</ele>
        <time>2017-10-30T09:54:36Z</time>
      </trkpt>
      <trkpt lat="44.19559" lon="5.09461">
        <ele>323.62</ele>
        <time>2017-10-30T09:54:54Z</time>
      </trkpt>
      <trkpt lat="44.19558" lon="5.09453">
        <ele>323.62</ele>
        <time>2017-10-30T09:55:11Z</time>
      </trkpt>
      <trkpt lat="44.19557" lon="5.09448">
        <ele>324.1</ele>
        <time>2017-10-30T09:55:38Z</time>
      </trkpt>
      <trkpt lat="44.19556" lon="5.09441">
        <ele>324.1</ele>
        <time>2017-10-30T09:56:03Z</time>
      </trkpt>
      <trkpt lat="44.1955" lon="5.09444">
        <ele>325.54</ele>
        <time>2017-10-30T09:56:17Z</time>
      </trkpt>
      <trkpt lat="44.19549" lon="5.09462">
        <ele>326.99</ele>
        <time>2017-10-30T09:56:33Z</time>
      </trkpt>
      <trkpt lat="44.19547" lon="5.09481">
        <ele>328.43</ele>
        <time>2017-10-30T09:56:51Z</time>
      </trkpt>
      <trkpt lat="44.19542" lon="5.09496">
        <ele>330.35</ele>
        <time>2017-10-30T09:57:10Z</time>
      </trkpt>
      <trkpt lat="44.19536" lon="5.09503">
        <ele>331.79</ele>
        <time>2017-10-30T09:57:29Z</time>
      </trkpt>
      <trkpt lat="44.19531" lon="5.09515">
        <ele>333.71</ele>
        <time>2017-10-30T09:57:48Z</time>
      </trkpt>
      <trkpt lat="44.19535" lon="5.09498">
        <ele>334.68</ele>
        <time>2017-10-30T09:58:03Z</time>
      </trkpt>
      <trkpt lat="44.19533" lon="5.09477">
        <ele>335.64</ele>
        <time>2017-10-30T09:58:21Z</time>
      </trkpt>
      <trkpt lat="44.19525" lon="5.09461">
        <ele>337.08</ele>
        <time>2017-10-30T09:58:40Z</time>
      </trkpt>
      <trkpt lat="44.19518" lon="5.09445">
        <ele>338.52</ele>
        <time>2017-10-30T09:58:56Z</time>
      </trkpt>
      <trkpt lat="44.19516" lon="5.0944">
        <ele>338.52</ele>
        <time>2017-10-30T09:59:18Z</time>
      </trkpt>
      <trkpt lat="44.19519" lon="5.09448">
        <ele>337.56</ele>
        <time>2017-10-30T09:59:35Z</time>
      </trkpt>
      <trkpt lat="44.19518" lon="5.09449">
        <ele>337.56</ele>
        <time>2017-10-30T10:00:06Z</time>
      </trkpt>
      <trkpt lat="44.19515" lon="5.09444">
        <ele>337.56</ele>
        <time>2017-10-30T10:00:28Z</time>
      </trkpt>
      <trkpt lat="44.19515" lon="5.09441">
        <ele>336.6</ele>
        <time>2017-10-30T10:00:46Z</time>
      </trkpt>
      <trkpt lat="44.19515" lon="5.09441">
        <ele>340.44</ele>
        <time>2017-10-30T10:00:47Z</time>
      </trkpt>
      <trkpt lat="44.19515" lon="5.09441">
        <ele>338.52</ele>
        <time>2017-10-30T10:00:48Z</time>
      </trkpt>
      <trkpt lat="44.19515" lon="5.09438">
        <ele>338.04</ele>
        <time>2017-10-30T10:01:05Z</time>
      </trkpt>
      <trkpt lat="44.19515" lon="5.09433">
        <ele>339</ele>
        <time>2017-10-30T10:01:37Z</time>
      </trkpt>
      <trkpt lat="44.19517" lon="5.09429">
        <ele>339.48</ele>
        <time>2017-10-30T10:02:10Z</time>
      </trkpt>
      <trkpt lat="44.19517" lon="5.0943">
        <ele>338.04</ele>
        <time>2017-10-30T10:02:34Z</time>
      </trkpt>
      <trkpt lat="44.19516" lon="5.09433">
        <ele>338.04</ele>
        <time>2017-10-30T10:02:55Z</time>
      </trkpt>
      <trkpt lat="44.19519" lon="5.09432">
        <ele>338.52</ele>
        <time>2017-10-30T10:03:24Z</time>
      </trkpt>
      <trkpt lat="44.19517" lon="5.09431">
        <ele>338.52</ele>
        <time>2017-10-30T10:03:48Z</time>
      </trkpt>
      <trkpt lat="44.19513" lon="5.09428">
        <ele>338.52</ele>
        <time>2017-10-30T10:04:24Z</time>
      </trkpt>
      <trkpt lat="44.19514" lon="5.09428">
        <ele>339</ele>
        <time>2017-10-30T10:04:49Z</time>
      </trkpt>
      <trkpt lat="44.19512" lon="5.09426">
        <ele>339</ele>
        <time>2017-10-30T10:05:11Z</time>
      </trkpt>
      <trkpt lat="44.19511" lon="5.09425">
        <ele>339</ele>
        <time>2017-10-30T10:05:30Z</time>
      </trkpt>
      <trkpt lat="44.1951" lon="5.09424">
        <ele>339.96</ele>
        <time>2017-10-30T10:05:56Z</time>
      </trkpt>
      <trkpt lat="44.19504" lon="5.09416">
        <ele>341.41</ele>
        <time>2017-10-30T10:06:11Z</time>
      </trkpt>
      <trkpt lat="44.19497" lon="5.09407">
        <ele>341.89</ele>
        <time>2017-10-30T10:06:25Z</time>
      </trkpt>
      <trkpt lat="44.1949" lon="5.09398">
        <ele>342.85</ele>
        <time>2017-10-30T10:06:40Z</time>
      </trkpt>
      <trkpt lat="44.19481" lon="5.09382">
        <ele>344.77</ele>
        <time>2017-10-30T10:06:57Z</time>
      </trkpt>
      <trkpt lat="44.19474" lon="5.09372">
        <ele>346.21</ele>
        <time>2017-10-30T10:07:12Z</time>
      </trkpt>
      <trkpt lat="44.19471" lon="5.09368">
        <ele>346.21</ele>
        <time>2017-10-30T10:07:18Z</time>
      </trkpt>
      <trkpt lat="44.19468" lon="5.09365">
        <ele>348.62</ele>
        <time>2017-10-30T10:07:20Z</time>
      </trkpt>
      <trkpt lat="44.19463" lon="5.09357">
        <ele>346.69</ele>
        <time>2017-10-30T10:07:31Z</time>
      </trkpt>
      <trkpt lat="44.19448" lon="5.09351">
        <ele>346.69</ele>
        <time>2017-10-30T10:07:50Z</time>
      </trkpt>
      <trkpt lat="44.19438" lon="5.09347">
        <ele>346.21</ele>
        <time>2017-10-30T10:08:07Z</time>
      </trkpt>
      <trkpt lat="44.19428" lon="5.09343">
        <ele>348.13</ele>
        <time>2017-10-30T10:08:23Z</time>
      </trkpt>
      <trkpt lat="44.19416" lon="5.0934">
        <ele>348.62</ele>
        <time>2017-10-30T10:08:38Z</time>
      </trkpt>
      <trkpt lat="44.19406" lon="5.09335">
        <ele>347.65</ele>
        <time>2017-10-30T10:08:51Z</time>
      </trkpt>
      <trkpt lat="44.19398" lon="5.09324">
        <ele>345.73</ele>
        <time>2017-10-30T10:09:05Z</time>
      </trkpt>
      <trkpt lat="44.19393" lon="5.09313">
        <ele>344.29</ele>
        <time>2017-10-30T10:09:19Z</time>
      </trkpt>
      <trkpt lat="44.19385" lon="5.09298">
        <ele>342.85</ele>
        <time>2017-10-30T10:09:37Z</time>
      </trkpt>
      <trkpt lat="44.19379" lon="5.09282">
        <ele>342.37</ele>
        <time>2017-10-30T10:09:51Z</time>
      </trkpt>
      <trkpt lat="44.19375" lon="5.09263">
        <ele>342.37</ele>
        <time>2017-10-30T10:10:06Z</time>
      </trkpt>
      <trkpt lat="44.19369" lon="5.09242">
        <ele>341.89</ele>
        <time>2017-10-30T10:10:22Z</time>
      </trkpt>
      <trkpt lat="44.19358" lon="5.09223">
        <ele>340.92</ele>
        <time>2017-10-30T10:10:40Z</time>
      </trkpt>
      <trkpt lat="44.19345" lon="5.09219">
        <ele>340.44</ele>
        <time>2017-10-30T10:10:55Z</time>
      </trkpt>
      <trkpt lat="44.19335" lon="5.09219">
        <ele>339.96</ele>
        <time>2017-10-30T10:11:10Z</time>
      </trkpt>
      <trkpt lat="44.19332" lon="5.09206">
        <ele>339.96</ele>
        <time>2017-10-30T10:11:26Z</time>
      </trkpt>
      <trkpt lat="44.19323" lon="5.0919">
        <ele>339</ele>
        <time>2017-10-30T10:11:44Z</time>
      </trkpt>
      <trkpt lat="44.1931" lon="5.09179">
        <ele>337.08</ele>
        <time>2017-10-30T10:12:01Z</time>
      </trkpt>
      <trkpt lat="44.19303" lon="5.09176">
        <ele>335.64</ele>
        <time>2017-10-30T10:12:16Z</time>
      </trkpt>
      <trkpt lat="44.19299" lon="5.09173">
        <ele>334.68</ele>
        <time>2017-10-30T10:12:30Z</time>
      </trkpt>
      <trkpt lat="44.19297" lon="5.09169">
        <ele>333.71</ele>
        <time>2017-10-30T10:12:55Z</time>
      </trkpt>
      <trkpt lat="44.19297" lon="5.09165">
        <ele>333.71</ele>
        <time>2017-10-30T10:13:12Z</time>
      </trkpt>
      <trkpt lat="44.19295" lon="5.09158">
        <ele>333.71</ele>
        <time>2017-10-30T10:13:31Z</time>
      </trkpt>
      <trkpt lat="44.19295" lon="5.09156">
        <ele>334.68</ele>
        <time>2017-10-30T10:13:35Z</time>
      </trkpt>
      <trkpt lat="44.19296" lon="5.09145">
        <ele>337.08</ele>
        <time>2017-10-30T10:13:51Z</time>
      </trkpt>
      <trkpt lat="44.19295" lon="5.09136">
        <ele>339.48</ele>
        <time>2017-10-30T10:14:06Z</time>
      </trkpt>
      <trkpt lat="44.19302" lon="5.09129">
        <ele>340.92</ele>
        <time>2017-10-30T10:14:21Z</time>
      </trkpt>
      <trkpt lat="44.19311" lon="5.09134">
        <ele>340.92</ele>
        <time>2017-10-30T10:14:38Z</time>
      </trkpt>
      <trkpt lat="44.19323" lon="5.09137">
        <ele>340.92</ele>
        <time>2017-10-30T10:14:55Z</time>
      </trkpt>
      <trkpt lat="44.19334" lon="5.0914">
        <ele>340.92</ele>
        <time>2017-10-30T10:15:10Z</time>
      </trkpt>
      <trkpt lat="44.19346" lon="5.09142">
        <ele>340.92</ele>
        <time>2017-10-30T10:15:26Z</time>
      </trkpt>
      <trkpt lat="44.19359" lon="5.09146">
        <ele>340.92</ele>
        <time>2017-10-30T10:15:42Z</time>
      </trkpt>
      <trkpt lat="44.19375" lon="5.09151">
        <ele>340.44</ele>
        <time>2017-10-30T10:15:59Z</time>
      </trkpt>
      <trkpt lat="44.19381" lon="5.09159">
        <ele>339.48</ele>
        <time>2017-10-30T10:16:08Z</time>
      </trkpt>
      <trkpt lat="44.19394" lon="5.09168">
        <ele>339</ele>
        <time>2017-10-30T10:16:26Z</time>
      </trkpt>
      <trkpt lat="44.19399" lon="5.0917">
        <ele>340.92</ele>
        <time>2017-10-30T10:16:42Z</time>
      </trkpt>
      <trkpt lat="44.194" lon="5.0917">
        <ele>340.92</ele>
        <time>2017-10-30T10:16:59Z</time>
      </trkpt>
      <trkpt lat="44.19401" lon="5.09169">
        <ele>340.92</ele>
        <time>2017-10-30T10:17:15Z</time>
      </trkpt>
      <trkpt lat="44.19392" lon="5.09166">
        <ele>340.92</ele>
        <time>2017-10-30T10:17:38Z</time>
      </trkpt>
      <trkpt lat="44.19381" lon="5.0916">
        <ele>341.89</ele>
        <time>2017-10-30T10:17:55Z</time>
      </trkpt>
      <trkpt lat="44.19368" lon="5.09154">
        <ele>342.37</ele>
        <time>2017-10-30T10:18:14Z</time>
      </trkpt>
      <trkpt lat="44.19364" lon="5.0916">
        <ele>342.37</ele>
        <time>2017-10-30T10:18:32Z</time>
      </trkpt>
      <trkpt lat="44.19361" lon="5.09156">
        <ele>342.85</ele>
        <time>2017-10-30T10:18:55Z</time>
      </trkpt>
      <trkpt lat="44.19348" lon="5.09148">
        <ele>342.85</ele>
        <time>2017-10-30T10:19:12Z</time>
      </trkpt>
      <trkpt lat="44.19335" lon="5.09138">
        <ele>343.81</ele>
        <time>2017-10-30T10:19:29Z</time>
      </trkpt>
      <trkpt lat="44.1933" lon="5.09134">
        <ele>344.29</ele>
        <time>2017-10-30T10:19:43Z</time>
      </trkpt>
      <trkpt lat="44.19329" lon="5.09133">
        <ele>344.29</ele>
        <time>2017-10-30T10:20:03Z</time>
      </trkpt>
      <trkpt lat="44.19324" lon="5.09127">
        <ele>344.77</ele>
        <time>2017-10-30T10:20:17Z</time>
      </trkpt>
      <trkpt lat="44.1931" lon="5.09116">
        <ele>345.73</ele>
        <time>2017-10-30T10:20:35Z</time>
      </trkpt>
      <trkpt lat="44.19298" lon="5.09107">
        <ele>346.21</ele>
        <time>2017-10-30T10:20:51Z</time>
      </trkpt>
      <trkpt lat="44.19296" lon="5.09101">
        <ele>346.21</ele>
        <time>2017-10-30T10:21:11Z</time>
      </trkpt>
      <trkpt lat="44.19285" lon="5.09092">
        <ele>347.17</ele>
        <time>2017-10-30T10:21:27Z</time>
      </trkpt>
      <trkpt lat="44.19272" lon="5.09077">
        <ele>347.65</ele>
        <time>2017-10-30T10:21:45Z</time>
      </trkpt>
      <trkpt lat="44.19257" lon="5.09059">
        <ele>347.65</ele>
        <time>2017-10-30T10:22:05Z</time>
      </trkpt>
      <trkpt lat="44.19244" lon="5.0904">
        <ele>348.13</ele>
        <time>2017-10-30T10:22:26Z</time>
      </trkpt>
      <trkpt lat="44.19235" lon="5.09023">
        <ele>349.58</ele>
        <time>2017-10-30T10:22:44Z</time>
      </trkpt>
      <trkpt lat="44.19234" lon="5.09006">
        <ele>350.54</ele>
        <time>2017-10-30T10:23:02Z</time>
      </trkpt>
      <trkpt lat="44.19238" lon="5.08985">
        <ele>352.94</ele>
        <time>2017-10-30T10:23:18Z</time>
      </trkpt>
      <trkpt lat="44.19238" lon="5.08987">
        <ele>351.5</ele>
        <time>2017-10-30T10:23:28Z</time>
      </trkpt>
      <trkpt lat="44.19238" lon="5.08988">
        <ele>353.42</ele>
        <time>2017-10-30T10:23:31Z</time>
      </trkpt>
      <trkpt lat="44.19241" lon="5.08986">
        <ele>353.42</ele>
        <time>2017-10-30T10:23:53Z</time>
      </trkpt>
      <trkpt lat="44.19241" lon="5.08985">
        <ele>353.42</ele>
        <time>2017-10-30T10:24:17Z</time>
      </trkpt>
      <trkpt lat="44.19237" lon="5.08985">
        <ele>352.46</ele>
        <time>2017-10-30T10:24:38Z</time>
      </trkpt>
      <trkpt lat="44.19235" lon="5.0899">
        <ele>356.79</ele>
        <time>2017-10-30T10:25:04Z</time>
      </trkpt>
      <trkpt lat="44.19235" lon="5.0899">
        <ele>352.94</ele>
        <time>2017-10-30T10:25:05Z</time>
      </trkpt>
      <trkpt lat="44.19237" lon="5.08996">
        <ele>352.94</ele>
        <time>2017-10-30T10:25:21Z</time>
      </trkpt>
      <trkpt lat="44.19239" lon="5.09004">
        <ele>354.38</ele>
        <time>2017-10-30T10:25:31Z</time>
      </trkpt>
      <trkpt lat="44.19248" lon="5.09015">
        <ele>355.34</ele>
        <time>2017-10-30T10:25:48Z</time>
      </trkpt>
      <trkpt lat="44.19257" lon="5.09022">
        <ele>357.75</ele>
        <time>2017-10-30T10:26:05Z</time>
      </trkpt>
      <trkpt lat="44.19266" lon="5.09026">
        <ele>358.23</ele>
        <time>2017-10-30T10:26:19Z</time>
      </trkpt>
      <trkpt lat="44.19275" lon="5.09031">
        <ele>360.15</ele>
        <time>2017-10-30T10:26:35Z</time>
      </trkpt>
      <trkpt lat="44.19287" lon="5.09034">
        <ele>361.59</ele>
        <time>2017-10-30T10:26:52Z</time>
      </trkpt>
      <trkpt lat="44.19301" lon="5.09036">
        <ele>363.52</ele>
        <time>2017-10-30T10:27:11Z</time>
      </trkpt>
      <trkpt lat="44.19312" lon="5.09047">
        <ele>364.48</ele>
        <time>2017-10-30T10:27:28Z</time>
      </trkpt>
      <trkpt lat="44.19318" lon="5.09052">
        <ele>365.44</ele>
        <time>2017-10-30T10:27:40Z</time>
      </trkpt>
      <trkpt lat="44.1932" lon="5.09049">
        <ele>365.44</ele>
        <time>2017-10-30T10:27:52Z</time>
      </trkpt>
      <trkpt lat="44.19317" lon="5.09041">
        <ele>366.88</ele>
        <time>2017-10-30T10:28:05Z</time>
      </trkpt>
      <trkpt lat="44.19316" lon="5.09039">
        <ele>367.36</ele>
        <time>2017-10-30T10:28:25Z</time>
      </trkpt>
      <trkpt lat="44.19315" lon="5.09036">
        <ele>367.84</ele>
        <time>2017-10-30T10:28:54Z</time>
      </trkpt>
      <trkpt lat="44.19315" lon="5.09037">
        <ele>367.36</ele>
        <time>2017-10-30T10:29:17Z</time>
      </trkpt>
      <trkpt lat="44.19315" lon="5.09038">
        <ele>367.36</ele>
        <time>2017-10-30T10:29:49Z</time>
      </trkpt>
      <trkpt lat="44.19309" lon="5.09028">
        <ele>368.32</ele>
        <time>2017-10-30T10:30:05Z</time>
      </trkpt>
      <trkpt lat="44.19305" lon="5.09022">
        <ele>369.76</ele>
        <time>2017-10-30T10:30:20Z</time>
      </trkpt>
      <trkpt lat="44.19299" lon="5.09011">
        <ele>370.24</ele>
        <time>2017-10-30T10:30:40Z</time>
      </trkpt>
      <trkpt lat="44.19289" lon="5.09">
        <ele>370.24</ele>
        <time>2017-10-30T10:30:58Z</time>
      </trkpt>
      <trkpt lat="44.1928" lon="5.08989">
        <ele>368.8</ele>
        <time>2017-10-30T10:31:14Z</time>
      </trkpt>
      <trkpt lat="44.19272" lon="5.08975">
        <ele>368.8</ele>
        <time>2017-10-30T10:31:28Z</time>
      </trkpt>
      <trkpt lat="44.19266" lon="5.08956">
        <ele>368.8</ele>
        <time>2017-10-30T10:31:44Z</time>
      </trkpt>
      <trkpt lat="44.19266" lon="5.08953">
        <ele>369.76</ele>
        <time>2017-10-30T10:31:46Z</time>
      </trkpt>
      <trkpt lat="44.19264" lon="5.08937">
        <ele>371.21</ele>
        <time>2017-10-30T10:32:01Z</time>
      </trkpt>
      <trkpt lat="44.1926" lon="5.08918">
        <ele>372.17</ele>
        <time>2017-10-30T10:32:16Z</time>
      </trkpt>
      <trkpt lat="44.19254" lon="5.08904">
        <ele>373.13</ele>
        <time>2017-10-30T10:32:33Z</time>
      </trkpt>
      <trkpt lat="44.19248" lon="5.08898">
        <ele>373.61</ele>
        <time>2017-10-30T10:32:51Z</time>
      </trkpt>
      <trkpt lat="44.19248" lon="5.08893">
        <ele>374.09</ele>
        <time>2017-10-30T10:33:08Z</time>
      </trkpt>
      <trkpt lat="44.19248" lon="5.08889">
        <ele>374.09</ele>
        <time>2017-10-30T10:33:22Z</time>
      </trkpt>
      <trkpt lat="44.19246" lon="5.08876">
        <ele>375.05</ele>
        <time>2017-10-30T10:33:37Z</time>
      </trkpt>
      <trkpt lat="44.19242" lon="5.08857">
        <ele>376.49</ele>
        <time>2017-10-30T10:33:54Z</time>
      </trkpt>
      <trkpt lat="44.1924" lon="5.08843">
        <ele>377.94</ele>
        <time>2017-10-30T10:34:09Z</time>
      </trkpt>
      <trkpt lat="44.19238" lon="5.08825">
        <ele>379.38</ele>
        <time>2017-10-30T10:34:26Z</time>
      </trkpt>
      <trkpt lat="44.19235" lon="5.08805">
        <ele>380.34</ele>
        <time>2017-10-30T10:34:43Z</time>
      </trkpt>
      <trkpt lat="44.1923" lon="5.08789">
        <ele>380.82</ele>
        <time>2017-10-30T10:34:58Z</time>
      </trkpt>
      <trkpt lat="44.19223" lon="5.0877">
        <ele>380.82</ele>
        <time>2017-10-30T10:35:12Z</time>
      </trkpt>
      <trkpt lat="44.19218" lon="5.08752">
        <ele>382.74</ele>
        <time>2017-10-30T10:35:27Z</time>
      </trkpt>
      <trkpt lat="44.19216" lon="5.08734">
        <ele>383.7</ele>
        <time>2017-10-30T10:35:42Z</time>
      </trkpt>
      <trkpt lat="44.19215" lon="5.0872">
        <ele>385.15</ele>
        <time>2017-10-30T10:35:55Z</time>
      </trkpt>
      <trkpt lat="44.19213" lon="5.0871">
        <ele>386.59</ele>
        <time>2017-10-30T10:36:09Z</time>
      </trkpt>
      <trkpt lat="44.19214" lon="5.08689">
        <ele>387.55</ele>
        <time>2017-10-30T10:36:25Z</time>
      </trkpt>
      <trkpt lat="44.19216" lon="5.08673">
        <ele>388.99</ele>
        <time>2017-10-30T10:36:40Z</time>
      </trkpt>
      <trkpt lat="44.19215" lon="5.08659">
        <ele>390.91</ele>
        <time>2017-10-30T10:36:54Z</time>
      </trkpt>
      <trkpt lat="44.19216" lon="5.08638">
        <ele>393.32</ele>
        <time>2017-10-30T10:37:09Z</time>
      </trkpt>
      <trkpt lat="44.19215" lon="5.08625">
        <ele>395.24</ele>
        <time>2017-10-30T10:37:24Z</time>
      </trkpt>
      <trkpt lat="44.19216" lon="5.0861">
        <ele>396.68</ele>
        <time>2017-10-30T10:37:39Z</time>
      </trkpt>
      <trkpt lat="44.19219" lon="5.08601">
        <ele>398.12</ele>
        <time>2017-10-30T10:37:51Z</time>
      </trkpt>
      <trkpt lat="44.19222" lon="5.08601">
        <ele>398.12</ele>
        <time>2017-10-30T10:38:09Z</time>
      </trkpt>
      <trkpt lat="44.19221" lon="5.08599">
        <ele>397.16</ele>
        <time>2017-10-30T10:38:12Z</time>
      </trkpt>
      <trkpt lat="44.19222" lon="5.08596">
        <ele>397.16</ele>
        <time>2017-10-30T10:38:35Z</time>
      </trkpt>
      <trkpt lat="44.19221" lon="5.08596">
        <ele>397.16</ele>
        <time>2017-10-30T10:38:52Z</time>
      </trkpt>
      <trkpt lat="44.19223" lon="5.08597">
        <ele>398.12</ele>
        <time>2017-10-30T10:39:14Z</time>
      </trkpt>
      <trkpt lat="44.19224" lon="5.08598">
        <ele>398.6</ele>
        <time>2017-10-30T10:39:45Z</time>
      </trkpt>
      <trkpt lat="44.19219" lon="5.08599">
        <ele>398.12</ele>
        <time>2017-10-30T10:40:01Z</time>
      </trkpt>
      <trkpt lat="44.1922" lon="5.08591">
        <ele>398.6</ele>
        <time>2017-10-30T10:40:12Z</time>
      </trkpt>
      <trkpt lat="44.19219" lon="5.08578">
        <ele>401.01</ele>
        <time>2017-10-30T10:40:28Z</time>
      </trkpt>
      <trkpt lat="44.19219" lon="5.08562">
        <ele>401.97</ele>
        <time>2017-10-30T10:40:45Z</time>
      </trkpt>
      <trkpt lat="44.1922" lon="5.08554">
        <ele>404.37</ele>
        <time>2017-10-30T10:41:03Z</time>
      </trkpt>
      <trkpt lat="44.19221" lon="5.08551">
        <ele>404.37</ele>
        <time>2017-10-30T10:41:22Z</time>
      </trkpt>
      <trkpt lat="44.19224" lon="5.08541">
        <ele>405.81</ele>
        <time>2017-10-30T10:41:36Z</time>
      </trkpt>
      <trkpt lat="44.1923" lon="5.08521">
        <ele>406.77</ele>
        <time>2017-10-30T10:41:53Z</time>
      </trkpt>
      <trkpt lat="44.19235" lon="5.08511">
        <ele>408.22</ele>
        <time>2017-10-30T10:42:09Z</time>
      </trkpt>
      <trkpt lat="44.19239" lon="5.08503">
        <ele>409.18</ele>
        <time>2017-10-30T10:42:23Z</time>
      </trkpt>
      <trkpt lat="44.19244" lon="5.08486">
        <ele>410.62</ele>
        <time>2017-10-30T10:42:37Z</time>
      </trkpt>
      <trkpt lat="44.19247" lon="5.08468">
        <ele>411.58</ele>
        <time>2017-10-30T10:42:53Z</time>
      </trkpt>
      <trkpt lat="44.1925" lon="5.08453">
        <ele>413.5</ele>
        <time>2017-10-30T10:43:09Z</time>
      </trkpt>
      <trkpt lat="44.19257" lon="5.0844">
        <ele>414.95</ele>
        <time>2017-10-30T10:43:24Z</time>
      </trkpt>
      <trkpt lat="44.19266" lon="5.08428">
        <ele>416.87</ele>
        <time>2017-10-30T10:43:39Z</time>
      </trkpt>
      <trkpt lat="44.19274" lon="5.08418">
        <ele>418.79</ele>
        <time>2017-10-30T10:43:54Z</time>
      </trkpt>
      <trkpt lat="44.19279" lon="5.08407">
        <ele>421.19</ele>
        <time>2017-10-30T10:44:11Z</time>
      </trkpt>
      <trkpt lat="44.19285" lon="5.084">
        <ele>423.6</ele>
        <time>2017-10-30T10:44:25Z</time>
      </trkpt>
      <trkpt lat="44.19292" lon="5.08388">
        <ele>424.56</ele>
        <time>2017-10-30T10:44:40Z</time>
      </trkpt>
      <trkpt lat="44.19301" lon="5.08381">
        <ele>427.44</ele>
        <time>2017-10-30T10:44:59Z</time>
      </trkpt>
      <trkpt lat="44.19313" lon="5.08372">
        <ele>429.37</ele>
        <time>2017-10-30T10:45:16Z</time>
      </trkpt>
      <trkpt lat="44.19322" lon="5.08364">
        <ele>430.81</ele>
        <time>2017-10-30T10:45:29Z</time>
      </trkpt>
      <trkpt lat="44.19332" lon="5.08347">
        <ele>431.77</ele>
        <time>2017-10-30T10:45:44Z</time>
      </trkpt>
      <trkpt lat="44.19335" lon="5.08345">
        <ele>432.25</ele>
        <time>2017-10-30T10:46:02Z</time>
      </trkpt>
      <trkpt lat="44.19334" lon="5.08345">
        <ele>430.81</ele>
        <time>2017-10-30T10:46:07Z</time>
      </trkpt>
      <trkpt lat="44.19332" lon="5.08342">
        <ele>430.81</ele>
        <time>2017-10-30T10:46:21Z</time>
      </trkpt>
      <trkpt lat="44.19329" lon="5.0833">
        <ele>430.81</ele>
        <time>2017-10-30T10:46:33Z</time>
      </trkpt>
      <trkpt lat="44.19323" lon="5.0831">
        <ele>432.73</ele>
        <time>2017-10-30T10:46:49Z</time>
      </trkpt>
      <trkpt lat="44.19315" lon="5.08297">
        <ele>433.69</ele>
        <time>2017-10-30T10:47:06Z</time>
      </trkpt>
      <trkpt lat="44.19309" lon="5.08287">
        <ele>436.58</ele>
        <time>2017-10-30T10:47:19Z</time>
      </trkpt>
      <trkpt lat="44.19314" lon="5.08276">
        <ele>437.54</ele>
        <time>2017-10-30T10:47:36Z</time>
      </trkpt>
      <trkpt lat="44.19325" lon="5.08276">
        <ele>438.98</ele>
        <time>2017-10-30T10:47:52Z</time>
      </trkpt>
      <trkpt lat="44.19336" lon="5.08277">
        <ele>441.38</ele>
        <time>2017-10-30T10:48:08Z</time>
      </trkpt>
      <trkpt lat="44.19346" lon="5.08276">
        <ele>443.31</ele>
        <time>2017-10-30T10:48:23Z</time>
      </trkpt>
      <trkpt lat="44.19355" lon="5.08277">
        <ele>445.71</ele>
        <time>2017-10-30T10:48:38Z</time>
      </trkpt>
      <trkpt lat="44.19366" lon="5.08285">
        <ele>447.63</ele>
        <time>2017-10-30T10:48:53Z</time>
      </trkpt>
      <trkpt lat="44.19372" lon="5.0829">
        <ele>449.55</ele>
        <time>2017-10-30T10:49:09Z</time>
      </trkpt>
      <trkpt lat="44.19379" lon="5.08295">
        <ele>451.48</ele>
        <time>2017-10-30T10:49:24Z</time>
      </trkpt>
      <trkpt lat="44.19388" lon="5.08307">
        <ele>453.88</ele>
        <time>2017-10-30T10:49:42Z</time>
      </trkpt>
      <trkpt lat="44.19389" lon="5.08306">
        <ele>455.32</ele>
        <time>2017-10-30T10:50:00Z</time>
      </trkpt>
      <trkpt lat="44.19388" lon="5.08293">
        <ele>456.76</ele>
        <time>2017-10-30T10:50:16Z</time>
      </trkpt>
      <trkpt lat="44.19391" lon="5.0828">
        <ele>458.69</ele>
        <time>2017-10-30T10:50:30Z</time>
      </trkpt>
      <trkpt lat="44.19399" lon="5.08266">
        <ele>460.61</ele>
        <time>2017-10-30T10:50:47Z</time>
      </trkpt>
      <trkpt lat="44.19405" lon="5.08255">
        <ele>462.05</ele>
        <time>2017-10-30T10:51:04Z</time>
      </trkpt>
      <trkpt lat="44.19407" lon="5.08243">
        <ele>463.01</ele>
        <time>2017-10-30T10:51:17Z</time>
      </trkpt>
      <trkpt lat="44.1941" lon="5.08239">
        <ele>463.97</ele>
        <time>2017-10-30T10:51:44Z</time>
      </trkpt>
      <trkpt lat="44.19408" lon="5.08242">
        <ele>463.97</ele>
        <time>2017-10-30T10:52:14Z</time>
      </trkpt>
      <trkpt lat="44.19408" lon="5.08238">
        <ele>463.49</ele>
        <time>2017-10-30T10:52:32Z</time>
      </trkpt>
      <trkpt lat="44.19408" lon="5.08222">
        <ele>463.49</ele>
        <time>2017-10-30T10:52:48Z</time>
      </trkpt>
      <trkpt lat="44.19406" lon="5.08204">
        <ele>465.42</ele>
        <time>2017-10-30T10:53:06Z</time>
      </trkpt>
      <trkpt lat="44.19404" lon="5.08181">
        <ele>466.38</ele>
        <time>2017-10-30T10:53:22Z</time>
      </trkpt>
      <trkpt lat="44.19405" lon="5.08163">
        <ele>466.86</ele>
        <time>2017-10-30T10:53:37Z</time>
      </trkpt>
      <trkpt lat="44.19407" lon="5.08139">
        <ele>467.82</ele>
        <time>2017-10-30T10:53:55Z</time>
      </trkpt>
      <trkpt lat="44.1941" lon="5.08119">
        <ele>469.26</ele>
        <time>2017-10-30T10:54:10Z</time>
      </trkpt>
      <trkpt lat="44.19414" lon="5.08104">
        <ele>470.22</ele>
        <time>2017-10-30T10:54:23Z</time>
      </trkpt>
      <trkpt lat="44.19414" lon="5.08101">
        <ele>472.14</ele>
        <time>2017-10-30T10:54:25Z</time>
      </trkpt>
      <trkpt lat="44.19417" lon="5.08074">
        <ele>471.66</ele>
        <time>2017-10-30T10:54:45Z</time>
      </trkpt>
      <trkpt lat="44.19419" lon="5.08054">
        <ele>472.63</ele>
        <time>2017-10-30T10:55:03Z</time>
      </trkpt>
      <trkpt lat="44.19425" lon="5.08037">
        <ele>473.59</ele>
        <time>2017-10-30T10:55:19Z</time>
      </trkpt>
      <trkpt lat="44.19426" lon="5.08032">
        <ele>470.7</ele>
        <time>2017-10-30T10:55:28Z</time>
      </trkpt>
      <trkpt lat="44.19426" lon="5.08032">
        <ele>476.95</ele>
        <time>2017-10-30T10:55:29Z</time>
      </trkpt>
      <trkpt lat="44.19426" lon="5.08033">
        <ele>473.11</ele>
        <time>2017-10-30T10:55:31Z</time>
      </trkpt>
      <trkpt lat="44.19426" lon="5.08015">
        <ele>475.03</ele>
        <time>2017-10-30T10:55:49Z</time>
      </trkpt>
      <trkpt lat="44.19423" lon="5.07994">
        <ele>475.99</ele>
        <time>2017-10-30T10:56:07Z</time>
      </trkpt>
      <trkpt lat="44.1942" lon="5.07975">
        <ele>477.43</ele>
        <time>2017-10-30T10:56:23Z</time>
      </trkpt>
      <trkpt lat="44.19415" lon="5.07957">
        <ele>478.39</ele>
        <time>2017-10-30T10:56:39Z</time>
      </trkpt>
      <trkpt lat="44.19404" lon="5.07938">
        <ele>478.87</ele>
        <time>2017-10-30T10:56:57Z</time>
      </trkpt>
      <trkpt lat="44.194" lon="5.07927">
        <ele>479.35</ele>
        <time>2017-10-30T10:57:07Z</time>
      </trkpt>
      <trkpt lat="44.19397" lon="5.07906">
        <ele>479.35</ele>
        <time>2017-10-30T10:57:24Z</time>
      </trkpt>
      <trkpt lat="44.19392" lon="5.07889">
        <ele>481.28</ele>
        <time>2017-10-30T10:57:36Z</time>
      </trkpt>
      <trkpt lat="44.1939" lon="5.0788">
        <ele>479.84</ele>
        <time>2017-10-30T10:57:45Z</time>
      </trkpt>
      <trkpt lat="44.19385" lon="5.07863">
        <ele>479.84</ele>
        <time>2017-10-30T10:57:59Z</time>
      </trkpt>
      <trkpt lat="44.1938" lon="5.07841">
        <ele>479.84</ele>
        <time>2017-10-30T10:58:15Z</time>
      </trkpt>
      <trkpt lat="44.19374" lon="5.07824">
        <ele>479.84</ele>
        <time>2017-10-30T10:58:31Z</time>
      </trkpt>
      <trkpt lat="44.1937" lon="5.07803">
        <ele>479.84</ele>
        <time>2017-10-30T10:58:47Z</time>
      </trkpt>
      <trkpt lat="44.19368" lon="5.07781">
        <ele>481.28</ele>
        <time>2017-10-30T10:59:05Z</time>
      </trkpt>
      <trkpt lat="44.19365" lon="5.07761">
        <ele>482.24</ele>
        <time>2017-10-30T10:59:22Z</time>
      </trkpt>
      <trkpt lat="44.1936" lon="5.07741">
        <ele>483.2</ele>
        <time>2017-10-30T10:59:39Z</time>
      </trkpt>
      <trkpt lat="44.19355" lon="5.07728">
        <ele>483.68</ele>
        <time>2017-10-30T10:59:50Z</time>
      </trkpt>
      <trkpt lat="44.19353" lon="5.07718">
        <ele>483.68</ele>
        <time>2017-10-30T11:00:05Z</time>
      </trkpt>
      <trkpt lat="44.19348" lon="5.07699">
        <ele>483.68</ele>
        <time>2017-10-30T11:00:25Z</time>
      </trkpt>
      <trkpt lat="44.19344" lon="5.0768">
        <ele>483.2</ele>
        <time>2017-10-30T11:00:42Z</time>
      </trkpt>
      <trkpt lat="44.19341" lon="5.07662">
        <ele>483.2</ele>
        <time>2017-10-30T11:00:57Z</time>
      </trkpt>
      <trkpt lat="44.19336" lon="5.07639">
        <ele>483.68</ele>
        <time>2017-10-30T11:01:15Z</time>
      </trkpt>
      <trkpt lat="44.19331" lon="5.07618">
        <ele>484.64</ele>
        <time>2017-10-30T11:01:32Z</time>
      </trkpt>
      <trkpt lat="44.19329" lon="5.07599">
        <ele>485.12</ele>
        <time>2017-10-30T11:01:46Z</time>
      </trkpt>
      <trkpt lat="44.19326" lon="5.07585">
        <ele>485.12</ele>
        <time>2017-10-30T11:01:57Z</time>
      </trkpt>
      <trkpt lat="44.19321" lon="5.07561">
        <ele>485.12</ele>
        <time>2017-10-30T11:02:15Z</time>
      </trkpt>
      <trkpt lat="44.19315" lon="5.07546">
        <ele>486.56</ele>
        <time>2017-10-30T11:02:30Z</time>
      </trkpt>
      <trkpt lat="44.19309" lon="5.07533">
        <ele>487.53</ele>
        <time>2017-10-30T11:02:44Z</time>
      </trkpt>
      <trkpt lat="44.19302" lon="5.07516">
        <ele>488.49</ele>
        <time>2017-10-30T11:03:00Z</time>
      </trkpt>
      <trkpt lat="44.19298" lon="5.07507">
        <ele>488.97</ele>
        <time>2017-10-30T11:03:08Z</time>
      </trkpt>
      <trkpt lat="44.19294" lon="5.07501">
        <ele>488.01</ele>
        <time>2017-10-30T11:03:17Z</time>
      </trkpt>
      <trkpt lat="44.19294" lon="5.07501">
        <ele>492.81</ele>
        <time>2017-10-30T11:03:18Z</time>
      </trkpt>
      <trkpt lat="44.19294" lon="5.075">
        <ele>489.45</ele>
        <time>2017-10-30T11:03:19Z</time>
      </trkpt>
      <trkpt lat="44.19283" lon="5.07485">
        <ele>489.45</ele>
        <time>2017-10-30T11:03:34Z</time>
      </trkpt>
      <trkpt lat="44.19275" lon="5.07471">
        <ele>488.97</ele>
        <time>2017-10-30T11:03:51Z</time>
      </trkpt>
      <trkpt lat="44.19273" lon="5.07463">
        <ele>488.01</ele>
        <time>2017-10-30T11:04:06Z</time>
      </trkpt>
      <trkpt lat="44.19279" lon="5.07466">
        <ele>487.05</ele>
        <time>2017-10-30T11:04:21Z</time>
      </trkpt>
      <trkpt lat="44.19291" lon="5.07468">
        <ele>486.08</ele>
        <time>2017-10-30T11:04:37Z</time>
      </trkpt>
      <trkpt lat="44.19298" lon="5.07468">
        <ele>485.6</ele>
        <time>2017-10-30T11:04:51Z</time>
      </trkpt>
      <trkpt lat="44.19305" lon="5.07468">
        <ele>485.12</ele>
        <time>2017-10-30T11:05:05Z</time>
      </trkpt>
      <trkpt lat="44.1931" lon="5.07469">
        <ele>484.64</ele>
        <time>2017-10-30T11:05:19Z</time>
      </trkpt>
      <trkpt lat="44.19312" lon="5.07473">
        <ele>484.16</ele>
        <time>2017-10-30T11:05:31Z</time>
      </trkpt>
      <trkpt lat="44.19316" lon="5.07473">
        <ele>483.2</ele>
        <time>2017-10-30T11:05:52Z</time>
      </trkpt>
      <trkpt lat="44.19316" lon="5.07471">
        <ele>483.68</ele>
        <time>2017-10-30T11:06:04Z</time>
      </trkpt>
      <trkpt lat="44.19313" lon="5.07474">
        <ele>483.68</ele>
        <time>2017-10-30T11:06:33Z</time>
      </trkpt>
      <trkpt lat="44.19312" lon="5.07473">
        <ele>483.2</ele>
        <time>2017-10-30T11:06:51Z</time>
      </trkpt>
      <trkpt lat="44.19313" lon="5.07477">
        <ele>483.68</ele>
        <time>2017-10-30T11:07:13Z</time>
      </trkpt>
      <trkpt lat="44.19312" lon="5.07476">
        <ele>483.68</ele>
        <time>2017-10-30T11:07:35Z</time>
      </trkpt>
      <trkpt lat="44.19313" lon="5.07472">
        <ele>483.2</ele>
        <time>2017-10-30T11:08:04Z</time>
      </trkpt>
      <trkpt lat="44.19314" lon="5.0747">
        <ele>483.68</ele>
        <time>2017-10-30T11:08:23Z</time>
      </trkpt>
      <trkpt lat="44.19315" lon="5.0747">
        <ele>483.68</ele>
        <time>2017-10-30T11:08:48Z</time>
      </trkpt>
      <trkpt lat="44.19315" lon="5.07471">
        <ele>483.68</ele>
        <time>2017-10-30T11:09:17Z</time>
      </trkpt>
      <trkpt lat="44.19316" lon="5.07471">
        <ele>484.16</ele>
        <time>2017-10-30T11:09:39Z</time>
      </trkpt>
      <trkpt lat="44.19315" lon="5.0747">
        <ele>484.16</ele>
        <time>2017-10-30T11:10:08Z</time>
      </trkpt>
      <trkpt lat="44.19314" lon="5.07469">
        <ele>484.64</ele>
        <time>2017-10-30T11:10:33Z</time>
      </trkpt>
      <trkpt lat="44.19313" lon="5.07469">
        <ele>484.64</ele>
        <time>2017-10-30T11:11:02Z</time>
      </trkpt>
      <trkpt lat="44.19315" lon="5.07472">
        <ele>485.12</ele>
        <time>2017-10-30T11:11:33Z</time>
      </trkpt>
      <trkpt lat="44.19316" lon="5.07472">
        <ele>485.12</ele>
        <time>2017-10-30T11:11:59Z</time>
      </trkpt>
      <trkpt lat="44.19317" lon="5.07472">
        <ele>485.12</ele>
        <time>2017-10-30T11:12:25Z</time>
      </trkpt>
      <trkpt lat="44.19317" lon="5.07469">
        <ele>485.6</ele>
        <time>2017-10-30T11:13:02Z</time>
      </trkpt>
      <trkpt lat="44.19316" lon="5.07469">
        <ele>485.6</ele>
        <time>2017-10-30T11:13:31Z</time>
      </trkpt>
      <trkpt lat="44.19314" lon="5.07469">
        <ele>485.6</ele>
        <time>2017-10-30T11:13:54Z</time>
      </trkpt>
      <trkpt lat="44.19313" lon="5.0747">
        <ele>486.08</ele>
        <time>2017-10-30T11:14:25Z</time>
      </trkpt>
      <trkpt lat="44.19312" lon="5.0747">
        <ele>486.08</ele>
        <time>2017-10-30T11:14:51Z</time>
      </trkpt>
      <trkpt lat="44.19316" lon="5.07467">
        <ele>486.56</ele>
        <time>2017-10-30T11:15:17Z</time>
      </trkpt>
      <trkpt lat="44.19315" lon="5.07468">
        <ele>486.56</ele>
        <time>2017-10-30T11:15:47Z</time>
      </trkpt>
      <trkpt lat="44.19315" lon="5.07465">
        <ele>486.56</ele>
        <time>2017-10-30T11:16:14Z</time>
      </trkpt>
      <trkpt lat="44.19315" lon="5.07467">
        <ele>487.05</ele>
        <time>2017-10-30T11:16:42Z</time>
      </trkpt>
      <trkpt lat="44.19315" lon="5.07469">
        <ele>487.05</ele>
        <time>2017-10-30T11:17:06Z</time>
      </trkpt>
      <trkpt lat="44.19315" lon="5.0747">
        <ele>487.05</ele>
        <time>2017-10-30T11:17:32Z</time>
      </trkpt>
      <trkpt lat="44.19316" lon="5.0747">
        <ele>487.53</ele>
        <time>2017-10-30T11:17:59Z</time>
      </trkpt>
      <trkpt lat="44.19316" lon="5.07471">
        <ele>487.53</ele>
        <time>2017-10-30T11:18:24Z</time>
      </trkpt>
      <trkpt lat="44.19313" lon="5.0747">
        <ele>487.53</ele>
        <time>2017-10-30T11:18:56Z</time>
      </trkpt>
      <trkpt lat="44.19317" lon="5.07473">
        <ele>488.01</ele>
        <time>2017-10-30T11:19:26Z</time>
      </trkpt>
      <trkpt lat="44.19313" lon="5.07475">
        <ele>488.01</ele>
        <time>2017-10-30T11:19:53Z</time>
      </trkpt>
      <trkpt lat="44.19313" lon="5.07475">
        <ele>488.01</ele>
        <time>2017-10-30T11:20:19Z</time>
      </trkpt>
      <trkpt lat="44.19312" lon="5.07473">
        <ele>488.01</ele>
        <time>2017-10-30T11:20:46Z</time>
      </trkpt>
      <trkpt lat="44.19311" lon="5.07473">
        <ele>488.01</ele>
        <time>2017-10-30T11:21:14Z</time>
      </trkpt>
      <trkpt lat="44.19312" lon="5.0747">
        <ele>488.01</ele>
        <time>2017-10-30T11:21:44Z</time>
      </trkpt>
      <trkpt lat="44.19313" lon="5.07473">
        <ele>488.49</ele>
        <time>2017-10-30T11:22:14Z</time>
      </trkpt>
      <trkpt lat="44.19315" lon="5.07475">
        <ele>488.49</ele>
        <time>2017-10-30T11:22:41Z</time>
      </trkpt>
      <trkpt lat="44.19313" lon="5.07473">
        <ele>488.01</ele>
        <time>2017-10-30T11:23:09Z</time>
      </trkpt>
      <trkpt lat="44.19313" lon="5.07473">
        <ele>488.01</ele>
        <time>2017-10-30T11:23:32Z</time>
      </trkpt>
      <trkpt lat="44.19311" lon="5.07472">
        <ele>488.01</ele>
        <time>2017-10-30T11:23:59Z</time>
      </trkpt>
      <trkpt lat="44.1931" lon="5.07467">
        <ele>488.01</ele>
        <time>2017-10-30T11:24:24Z</time>
      </trkpt>
      <trkpt lat="44.19311" lon="5.07469">
        <ele>488.01</ele>
        <time>2017-10-30T11:24:53Z</time>
      </trkpt>
      <trkpt lat="44.19311" lon="5.07471">
        <ele>489.45</ele>
        <time>2017-10-30T11:25:03Z</time>
      </trkpt>
      <trkpt lat="44.19311" lon="5.07473">
        <ele>490.41</ele>
        <time>2017-10-30T11:25:26Z</time>
      </trkpt>
      <trkpt lat="44.19311" lon="5.07473">
        <ele>490.41</ele>
        <time>2017-10-30T11:25:47Z</time>
      </trkpt>
      <trkpt lat="44.19311" lon="5.07473">
        <ele>490.41</ele>
        <time>2017-10-30T11:26:16Z</time>
      </trkpt>
      <trkpt lat="44.19312" lon="5.07468">
        <ele>490.41</ele>
        <time>2017-10-30T11:26:46Z</time>
      </trkpt>
      <trkpt lat="44.19313" lon="5.07466">
        <ele>490.41</ele>
        <time>2017-10-30T11:27:21Z</time>
      </trkpt>
      <trkpt lat="44.19313" lon="5.07466">
        <ele>488.97</ele>
        <time>2017-10-30T11:27:48Z</time>
      </trkpt>
      <trkpt lat="44.19312" lon="5.07466">
        <ele>488.97</ele>
        <time>2017-10-30T11:28:21Z</time>
      </trkpt>
      <trkpt lat="44.19312" lon="5.07465">
        <ele>490.41</ele>
        <time>2017-10-30T11:28:43Z</time>
      </trkpt>
      <trkpt lat="44.19314" lon="5.07469">
        <ele>490.41</ele>
        <time>2017-10-30T11:29:12Z</time>
      </trkpt>
      <trkpt lat="44.19314" lon="5.07472">
        <ele>490.41</ele>
        <time>2017-10-30T11:29:39Z</time>
      </trkpt>
      <trkpt lat="44.19313" lon="5.07474">
        <ele>489.45</ele>
        <time>2017-10-30T11:30:05Z</time>
      </trkpt>
      <trkpt lat="44.19312" lon="5.07473">
        <ele>483.68</ele>
        <time>2017-10-30T11:30:16Z</time>
      </trkpt>
      <trkpt lat="44.19312" lon="5.07473">
        <ele>496.18</ele>
        <time>2017-10-30T11:30:17Z</time>
      </trkpt>
      <trkpt lat="44.19312" lon="5.07473">
        <ele>490.41</ele>
        <time>2017-10-30T11:30:18Z</time>
      </trkpt>
      <trkpt lat="44.19313" lon="5.07473">
        <ele>490.41</ele>
        <time>2017-10-30T11:30:38Z</time>
      </trkpt>
      <trkpt lat="44.19313" lon="5.07469">
        <ele>490.41</ele>
        <time>2017-10-30T11:31:08Z</time>
      </trkpt>
      <trkpt lat="44.19312" lon="5.07466">
        <ele>491.37</ele>
        <time>2017-10-30T11:31:26Z</time>
      </trkpt>
      <trkpt lat="44.19313" lon="5.07465">
        <ele>491.37</ele>
        <time>2017-10-30T11:31:53Z</time>
      </trkpt>
      <trkpt lat="44.19314" lon="5.07464">
        <ele>491.37</ele>
        <time>2017-10-30T11:32:27Z</time>
      </trkpt>
      <trkpt lat="44.19314" lon="5.07464">
        <ele>490.41</ele>
        <time>2017-10-30T11:32:54Z</time>
      </trkpt>
      <trkpt lat="44.19312" lon="5.07464">
        <ele>490.41</ele>
        <time>2017-10-30T11:33:24Z</time>
      </trkpt>
      <trkpt lat="44.19312" lon="5.07464">
        <ele>490.41</ele>
        <time>2017-10-30T11:33:47Z</time>
      </trkpt>
      <trkpt lat="44.19312" lon="5.07467">
        <ele>491.37</ele>
        <time>2017-10-30T11:33:59Z</time>
      </trkpt>
      <trkpt lat="44.19312" lon="5.07467">
        <ele>491.37</ele>
        <time>2017-10-30T11:34:23Z</time>
      </trkpt>
      <trkpt lat="44.19312" lon="5.07468">
        <ele>491.37</ele>
        <time>2017-10-30T11:34:42Z</time>
      </trkpt>
      <trkpt lat="44.19313" lon="5.0747">
        <ele>491.37</ele>
        <time>2017-10-30T11:35:02Z</time>
      </trkpt>
      <trkpt lat="44.19315" lon="5.07472">
        <ele>491.85</ele>
        <time>2017-10-30T11:35:22Z</time>
      </trkpt>
      <trkpt lat="44.19315" lon="5.07474">
        <ele>491.85</ele>
        <time>2017-10-30T11:35:45Z</time>
      </trkpt>
      <trkpt lat="44.19315" lon="5.07474">
        <ele>491.85</ele>
        <time>2017-10-30T11:36:04Z</time>
      </trkpt>
      <trkpt lat="44.19315" lon="5.07475">
        <ele>494.74</ele>
        <time>2017-10-30T11:36:19Z</time>
      </trkpt>
      <trkpt lat="44.19315" lon="5.07475">
        <ele>488.01</ele>
        <time>2017-10-30T11:36:20Z</time>
      </trkpt>
      <trkpt lat="44.19315" lon="5.07474">
        <ele>495.22</ele>
        <time>2017-10-30T11:36:21Z</time>
      </trkpt>
      <trkpt lat="44.19315" lon="5.07474">
        <ele>492.33</ele>
        <time>2017-10-30T11:36:22Z</time>
      </trkpt>
      <trkpt lat="44.19318" lon="5.07472">
        <ele>491.37</ele>
        <time>2017-10-30T11:36:43Z</time>
      </trkpt>
      <trkpt lat="44.19321" lon="5.07471">
        <ele>491.37</ele>
        <time>2017-10-30T11:37:02Z</time>
      </trkpt>
      <trkpt lat="44.19321" lon="5.0747">
        <ele>493.29</ele>
        <time>2017-10-30T11:37:15Z</time>
      </trkpt>
      <trkpt lat="44.19322" lon="5.0747">
        <ele>491.37</ele>
        <time>2017-10-30T11:37:36Z</time>
      </trkpt>
      <trkpt lat="44.19318" lon="5.07466">
        <ele>491.37</ele>
        <time>2017-10-30T11:37:56Z</time>
      </trkpt>
      <trkpt lat="44.19317" lon="5.07464">
        <ele>491.37</ele>
        <time>2017-10-30T11:38:22Z</time>
      </trkpt>
      <trkpt lat="44.19318" lon="5.07467">
        <ele>491.37</ele>
        <time>2017-10-30T11:38:46Z</time>
      </trkpt>
      <trkpt lat="44.19322" lon="5.07471">
        <ele>491.37</ele>
        <time>2017-10-30T11:39:12Z</time>
      </trkpt>
      <trkpt lat="44.19325" lon="5.07473">
        <ele>490.89</ele>
        <time>2017-10-30T11:39:26Z</time>
      </trkpt>
      <trkpt lat="44.19329" lon="5.07474">
        <ele>489.93</ele>
        <time>2017-10-30T11:39:41Z</time>
      </trkpt>
      <trkpt lat="44.19334" lon="5.07476">
        <ele>488.49</ele>
        <time>2017-10-30T11:39:57Z</time>
      </trkpt>
      <trkpt lat="44.1934" lon="5.07481">
        <ele>487.05</ele>
        <time>2017-10-30T11:40:12Z</time>
      </trkpt>
      <trkpt lat="44.19346" lon="5.07485">
        <ele>485.6</ele>
        <time>2017-10-30T11:40:29Z</time>
      </trkpt>
      <trkpt lat="44.19351" lon="5.07489">
        <ele>484.16</ele>
        <time>2017-10-30T11:40:44Z</time>
      </trkpt>
      <trkpt lat="44.19357" lon="5.0749">
        <ele>482.72</ele>
        <time>2017-10-30T11:40:59Z</time>
      </trkpt>
      <trkpt lat="44.19363" lon="5.07492">
        <ele>482.24</ele>
        <time>2017-10-30T11:41:12Z</time>
      </trkpt>
      <trkpt lat="44.19368" lon="5.07493">
        <ele>480.8</ele>
        <time>2017-10-30T11:41:30Z</time>
      </trkpt>
      <trkpt lat="44.19375" lon="5.07497">
        <ele>480.32</ele>
        <time>2017-10-30T11:41:44Z</time>
      </trkpt>
      <trkpt lat="44.1938" lon="5.07497">
        <ele>479.84</ele>
        <time>2017-10-30T11:41:59Z</time>
      </trkpt>
      <trkpt lat="44.19384" lon="5.07499">
        <ele>478.87</ele>
        <time>2017-10-30T11:42:12Z</time>
      </trkpt>
      <trkpt lat="44.1939" lon="5.07503">
        <ele>477.91</ele>
        <time>2017-10-30T11:42:36Z</time>
      </trkpt>
      <trkpt lat="44.19395" lon="5.07504">
        <ele>476.47</ele>
        <time>2017-10-30T11:42:51Z</time>
      </trkpt>
      <trkpt lat="44.19403" lon="5.07506">
        <ele>475.99</ele>
        <time>2017-10-30T11:43:06Z</time>
      </trkpt>
      <trkpt lat="44.19407" lon="5.07508">
        <ele>474.55</ele>
        <time>2017-10-30T11:43:21Z</time>
      </trkpt>
      <trkpt lat="44.19413" lon="5.07512">
        <ele>473.11</ele>
        <time>2017-10-30T11:43:35Z</time>
      </trkpt>
      <trkpt lat="44.1942" lon="5.07517">
        <ele>471.18</ele>
        <time>2017-10-30T11:43:51Z</time>
      </trkpt>
      <trkpt lat="44.19426" lon="5.07523">
        <ele>469.74</ele>
        <time>2017-10-30T11:44:06Z</time>
      </trkpt>
      <trkpt lat="44.19431" lon="5.07523">
        <ele>469.26</ele>
        <time>2017-10-30T11:44:18Z</time>
      </trkpt>
      <trkpt lat="44.19438" lon="5.07521">
        <ele>468.78</ele>
        <time>2017-10-30T11:44:33Z</time>
      </trkpt>
      <trkpt lat="44.19447" lon="5.07524">
        <ele>467.82</ele>
        <time>2017-10-30T11:44:48Z</time>
      </trkpt>
      <trkpt lat="44.19457" lon="5.07528">
        <ele>466.86</ele>
        <time>2017-10-30T11:45:07Z</time>
      </trkpt>
      <trkpt lat="44.19464" lon="5.07532">
        <ele>465.42</ele>
        <time>2017-10-30T11:45:22Z</time>
      </trkpt>
      <trkpt lat="44.19471" lon="5.07537">
        <ele>464.93</ele>
        <time>2017-10-30T11:45:39Z</time>
      </trkpt>
      <trkpt lat="44.19478" lon="5.07542">
        <ele>464.45</ele>
        <time>2017-10-30T11:45:56Z</time>
      </trkpt>
      <trkpt lat="44.19483" lon="5.07547">
        <ele>463.49</ele>
        <time>2017-10-30T11:46:10Z</time>
      </trkpt>
      <trkpt lat="44.19492" lon="5.07556">
        <ele>462.05</ele>
        <time>2017-10-30T11:46:28Z</time>
      </trkpt>
      <trkpt lat="44.19496" lon="5.07559">
        <ele>461.57</ele>
        <time>2017-10-30T11:46:44Z</time>
      </trkpt>
      <trkpt lat="44.19499" lon="5.0757">
        <ele>461.09</ele>
        <time>2017-10-30T11:47:01Z</time>
      </trkpt>
      <trkpt lat="44.19499" lon="5.07577">
        <ele>461.09</ele>
        <time>2017-10-30T11:47:15Z</time>
      </trkpt>
      <trkpt lat="44.19505" lon="5.07584">
        <ele>460.13</ele>
        <time>2017-10-30T11:47:30Z</time>
      </trkpt>
      <trkpt lat="44.1951" lon="5.07595">
        <ele>459.17</ele>
        <time>2017-10-30T11:47:46Z</time>
      </trkpt>
      <trkpt lat="44.19514" lon="5.0761">
        <ele>458.21</ele>
        <time>2017-10-30T11:48:01Z</time>
      </trkpt>
      <trkpt lat="44.19515" lon="5.07626">
        <ele>457.24</ele>
        <time>2017-10-30T11:48:19Z</time>
      </trkpt>
      <trkpt lat="44.19517" lon="5.07639">
        <ele>457.24</ele>
        <time>2017-10-30T11:48:33Z</time>
      </trkpt>
      <trkpt lat="44.19521" lon="5.07657">
        <ele>456.28</ele>
        <time>2017-10-30T11:48:49Z</time>
      </trkpt>
      <trkpt lat="44.19528" lon="5.07668">
        <ele>454.84</ele>
        <time>2017-10-30T11:49:06Z</time>
      </trkpt>
      <trkpt lat="44.19536" lon="5.07681">
        <ele>454.84</ele>
        <time>2017-10-30T11:49:23Z</time>
      </trkpt>
      <trkpt lat="44.19543" lon="5.07691">
        <ele>453.4</ele>
        <time>2017-10-30T11:49:38Z</time>
      </trkpt>
      <trkpt lat="44.1955" lon="5.07703">
        <ele>453.4</ele>
        <time>2017-10-30T11:49:54Z</time>
      </trkpt>
      <trkpt lat="44.1956" lon="5.07718">
        <ele>451.96</ele>
        <time>2017-10-30T11:50:14Z</time>
      </trkpt>
      <trkpt lat="44.19561" lon="5.0772">
        <ele>451.96</ele>
        <time>2017-10-30T11:50:33Z</time>
      </trkpt>
      <trkpt lat="44.19563" lon="5.07726">
        <ele>451.48</ele>
        <time>2017-10-30T11:50:58Z</time>
      </trkpt>
      <trkpt lat="44.19567" lon="5.07726">
        <ele>451.48</ele>
        <time>2017-10-30T11:51:30Z</time>
      </trkpt>
      <trkpt lat="44.19566" lon="5.07724">
        <ele>451.48</ele>
        <time>2017-10-30T11:51:59Z</time>
      </trkpt>
      <trkpt lat="44.19567" lon="5.07725">
        <ele>451.48</ele>
        <time>2017-10-30T11:52:26Z</time>
      </trkpt>
      <trkpt lat="44.19571" lon="5.07726">
        <ele>451.48</ele>
        <time>2017-10-30T11:52:52Z</time>
      </trkpt>
      <trkpt lat="44.19571" lon="5.07727">
        <ele>451.48</ele>
        <time>2017-10-30T11:53:17Z</time>
      </trkpt>
      <trkpt lat="44.19576" lon="5.07738">
        <ele>451</ele>
        <time>2017-10-30T11:53:34Z</time>
      </trkpt>
      <trkpt lat="44.19583" lon="5.07752">
        <ele>449.55</ele>
        <time>2017-10-30T11:53:53Z</time>
      </trkpt>
      <trkpt lat="44.19589" lon="5.07766">
        <ele>449.07</ele>
        <time>2017-10-30T11:54:09Z</time>
      </trkpt>
      <trkpt lat="44.19595" lon="5.07777">
        <ele>448.11</ele>
        <time>2017-10-30T11:54:25Z</time>
      </trkpt>
      <trkpt lat="44.19597" lon="5.07789">
        <ele>446.67</ele>
        <time>2017-10-30T11:54:40Z</time>
      </trkpt>
      <trkpt lat="44.19606" lon="5.07802">
        <ele>445.71</ele>
        <time>2017-10-30T11:54:55Z</time>
      </trkpt>
      <trkpt lat="44.19618" lon="5.07813">
        <ele>444.27</ele>
        <time>2017-10-30T11:55:16Z</time>
      </trkpt>
      <trkpt lat="44.19628" lon="5.07816">
        <ele>443.31</ele>
        <time>2017-10-30T11:55:31Z</time>
      </trkpt>
      <trkpt lat="44.19633" lon="5.07835">
        <ele>441.38</ele>
        <time>2017-10-30T11:55:52Z</time>
      </trkpt>
      <trkpt lat="44.19639" lon="5.07846">
        <ele>439.94</ele>
        <time>2017-10-30T11:56:06Z</time>
      </trkpt>
      <trkpt lat="44.19646" lon="5.07857">
        <ele>437.54</ele>
        <time>2017-10-30T11:56:22Z</time>
      </trkpt>
      <trkpt lat="44.19649" lon="5.07865">
        <ele>437.06</ele>
        <time>2017-10-30T11:56:40Z</time>
      </trkpt>
      <trkpt lat="44.19651" lon="5.07869">
        <ele>435.13</ele>
        <time>2017-10-30T11:56:54Z</time>
      </trkpt>
      <trkpt lat="44.19656" lon="5.0788">
        <ele>433.69</ele>
        <time>2017-10-30T11:57:12Z</time>
      </trkpt>
      <trkpt lat="44.1966" lon="5.07884">
        <ele>433.21</ele>
        <time>2017-10-30T11:57:24Z</time>
      </trkpt>
      <trkpt lat="44.19664" lon="5.07888">
        <ele>432.25</ele>
        <time>2017-10-30T11:57:39Z</time>
      </trkpt>
      <trkpt lat="44.1967" lon="5.07887">
        <ele>432.25</ele>
        <time>2017-10-30T11:57:55Z</time>
      </trkpt>
      <trkpt lat="44.19676" lon="5.07873">
        <ele>432.25</ele>
        <time>2017-10-30T11:58:11Z</time>
      </trkpt>
      <trkpt lat="44.19687" lon="5.07863">
        <ele>432.25</ele>
        <time>2017-10-30T11:58:28Z</time>
      </trkpt>
      <trkpt lat="44.19696" lon="5.07857">
        <ele>430.33</ele>
        <time>2017-10-30T11:58:46Z</time>
      </trkpt>
      <trkpt lat="44.19702" lon="5.07847">
        <ele>428.4</ele>
        <time>2017-10-30T11:59:02Z</time>
      </trkpt>
      <trkpt lat="44.19707" lon="5.07835">
        <ele>426.48</ele>
        <time>2017-10-30T11:59:19Z</time>
      </trkpt>
      <trkpt lat="44.19714" lon="5.07831">
        <ele>425.04</ele>
        <time>2017-10-30T11:59:33Z</time>
      </trkpt>
      <trkpt lat="44.19721" lon="5.07837">
        <ele>425.04</ele>
        <time>2017-10-30T11:59:48Z</time>
      </trkpt>
      <trkpt lat="44.19728" lon="5.07853">
        <ele>426.96</ele>
        <time>2017-10-30T12:00:02Z</time>
      </trkpt>
      <trkpt lat="44.19732" lon="5.07863">
        <ele>428.4</ele>
        <time>2017-10-30T12:00:16Z</time>
      </trkpt>
      <trkpt lat="44.19737" lon="5.07876">
        <ele>429.85</ele>
        <time>2017-10-30T12:00:34Z</time>
      </trkpt>
      <trkpt lat="44.19739" lon="5.07894">
        <ele>430.81</ele>
        <time>2017-10-30T12:00:49Z</time>
      </trkpt>
      <trkpt lat="44.19747" lon="5.07907">
        <ele>431.29</ele>
        <time>2017-10-30T12:01:05Z</time>
      </trkpt>
      <trkpt lat="44.19748" lon="5.07908">
        <ele>429.85</ele>
        <time>2017-10-30T12:01:07Z</time>
      </trkpt>
      <trkpt lat="44.1975" lon="5.07924">
        <ele>428.89</ele>
        <time>2017-10-30T12:01:23Z</time>
      </trkpt>
      <trkpt lat="44.19752" lon="5.07927">
        <ele>427.92</ele>
        <time>2017-10-30T12:01:36Z</time>
      </trkpt>
      <trkpt lat="44.19756" lon="5.0793">
        <ele>427.44</ele>
        <time>2017-10-30T12:01:49Z</time>
      </trkpt>
      <trkpt lat="44.19761" lon="5.07933">
        <ele>426</ele>
        <time>2017-10-30T12:02:07Z</time>
      </trkpt>
      <trkpt lat="44.19764" lon="5.07933">
        <ele>424.56</ele>
        <time>2017-10-30T12:02:22Z</time>
      </trkpt>
      <trkpt lat="44.19769" lon="5.07933">
        <ele>423.12</ele>
        <time>2017-10-30T12:02:40Z</time>
      </trkpt>
      <trkpt lat="44.19772" lon="5.07934">
        <ele>421.68</ele>
        <time>2017-10-30T12:02:57Z</time>
      </trkpt>
      <trkpt lat="44.19773" lon="5.07938">
        <ele>420.23</ele>
        <time>2017-10-30T12:03:14Z</time>
      </trkpt>
      <trkpt lat="44.19775" lon="5.07941">
        <ele>419.27</ele>
        <time>2017-10-30T12:03:29Z</time>
      </trkpt>
      <trkpt lat="44.19776" lon="5.07946">
        <ele>417.83</ele>
        <time>2017-10-30T12:03:43Z</time>
      </trkpt>
      <trkpt lat="44.19776" lon="5.07946">
        <ele>416.87</ele>
        <time>2017-10-30T12:04:04Z</time>
      </trkpt>
      <trkpt lat="44.19776" lon="5.07944">
        <ele>416.39</ele>
        <time>2017-10-30T12:04:31Z</time>
      </trkpt>
      <trkpt lat="44.19776" lon="5.07944">
        <ele>416.39</ele>
        <time>2017-10-30T12:04:49Z</time>
      </trkpt>
      <trkpt lat="44.19776" lon="5.07945">
        <ele>417.35</ele>
        <time>2017-10-30T12:05:03Z</time>
      </trkpt>
      <trkpt lat="44.19777" lon="5.07949">
        <ele>417.35</ele>
        <time>2017-10-30T12:05:20Z</time>
      </trkpt>
      <trkpt lat="44.19775" lon="5.07952">
        <ele>419.27</ele>
        <time>2017-10-30T12:05:33Z</time>
      </trkpt>
      <trkpt lat="44.19776" lon="5.07957">
        <ele>420.71</ele>
        <time>2017-10-30T12:05:48Z</time>
      </trkpt>
      <trkpt lat="44.19777" lon="5.07966">
        <ele>422.64</ele>
        <time>2017-10-30T12:06:05Z</time>
      </trkpt>
      <trkpt lat="44.19773" lon="5.07974">
        <ele>425.04</ele>
        <time>2017-10-30T12:06:20Z</time>
      </trkpt>
      <trkpt lat="44.19769" lon="5.07983">
        <ele>426</ele>
        <time>2017-10-30T12:06:34Z</time>
      </trkpt>
      <trkpt lat="44.19764" lon="5.07986">
        <ele>426</ele>
        <time>2017-10-30T12:06:48Z</time>
      </trkpt>
      <trkpt lat="44.19755" lon="5.07997">
        <ele>426.48</ele>
        <time>2017-10-30T12:07:04Z</time>
      </trkpt>
      <trkpt lat="44.19751" lon="5.08015">
        <ele>426.96</ele>
        <time>2017-10-30T12:07:21Z</time>
      </trkpt>
      <trkpt lat="44.19758" lon="5.08026">
        <ele>427.92</ele>
        <time>2017-10-30T12:07:37Z</time>
      </trkpt>
      <trkpt lat="44.19762" lon="5.08039">
        <ele>428.89</ele>
        <time>2017-10-30T12:07:52Z</time>
      </trkpt>
      <trkpt lat="44.19768" lon="5.08054">
        <ele>429.37</ele>
        <time>2017-10-30T12:08:06Z</time>
      </trkpt>
      <trkpt lat="44.19773" lon="5.0807">
        <ele>429.37</ele>
        <time>2017-10-30T12:08:22Z</time>
      </trkpt>
      <trkpt lat="44.19777" lon="5.08083">
        <ele>428.4</ele>
        <time>2017-10-30T12:08:35Z</time>
      </trkpt>
      <trkpt lat="44.19782" lon="5.08099">
        <ele>427.44</ele>
        <time>2017-10-30T12:08:53Z</time>
      </trkpt>
      <trkpt lat="44.1979" lon="5.08114">
        <ele>426.96</ele>
        <time>2017-10-30T12:09:10Z</time>
      </trkpt>
      <trkpt lat="44.19792" lon="5.08119">
        <ele>426.48</ele>
        <time>2017-10-30T12:09:27Z</time>
      </trkpt>
      <trkpt lat="44.19792" lon="5.08121">
        <ele>426.96</ele>
        <time>2017-10-30T12:09:50Z</time>
      </trkpt>
      <trkpt lat="44.19796" lon="5.08122">
        <ele>426.96</ele>
        <time>2017-10-30T12:10:05Z</time>
      </trkpt>
      <trkpt lat="44.19799" lon="5.08123">
        <ele>426</ele>
        <time>2017-10-30T12:10:30Z</time>
      </trkpt>
      <trkpt lat="44.19802" lon="5.08129">
        <ele>425.52</ele>
        <time>2017-10-30T12:10:50Z</time>
      </trkpt>
      <trkpt lat="44.19808" lon="5.08132">
        <ele>425.04</ele>
        <time>2017-10-30T12:11:05Z</time>
      </trkpt>
      <trkpt lat="44.19815" lon="5.08139">
        <ele>424.56</ele>
        <time>2017-10-30T12:11:22Z</time>
      </trkpt>
      <trkpt lat="44.19812" lon="5.08152">
        <ele>425.52</ele>
        <time>2017-10-30T12:11:33Z</time>
      </trkpt>
      <trkpt lat="44.19816" lon="5.08174">
        <ele>426.48</ele>
        <time>2017-10-30T12:11:50Z</time>
      </trkpt>
      <trkpt lat="44.19827" lon="5.08187">
        <ele>426.96</ele>
        <time>2017-10-30T12:12:08Z</time>
      </trkpt>
      <trkpt lat="44.19838" lon="5.08202">
        <ele>426.96</ele>
        <time>2017-10-30T12:12:25Z</time>
      </trkpt>
      <trkpt lat="44.19845" lon="5.0822">
        <ele>425.52</ele>
        <time>2017-10-30T12:12:43Z</time>
      </trkpt>
      <trkpt lat="44.19845" lon="5.08228">
        <ele>425.52</ele>
        <time>2017-10-30T12:12:58Z</time>
      </trkpt>
      <trkpt lat="44.19842" lon="5.08232">
        <ele>425.52</ele>
        <time>2017-10-30T12:13:26Z</time>
      </trkpt>
      <trkpt lat="44.19843" lon="5.08236">
        <ele>425.52</ele>
        <time>2017-10-30T12:13:52Z</time>
      </trkpt>
      <trkpt lat="44.19847" lon="5.08241">
        <ele>425.52</ele>
        <time>2017-10-30T12:14:09Z</time>
      </trkpt>
      <trkpt lat="44.19855" lon="5.08252">
        <ele>428.4</ele>
        <time>2017-10-30T12:14:27Z</time>
      </trkpt>
      <trkpt lat="44.19864" lon="5.08265">
        <ele>429.37</ele>
        <time>2017-10-30T12:14:44Z</time>
      </trkpt>
      <trkpt lat="44.19872" lon="5.08285">
        <ele>429.37</ele>
        <time>2017-10-30T12:15:02Z</time>
      </trkpt>
      <trkpt lat="44.19879" lon="5.08307">
        <ele>429.37</ele>
        <time>2017-10-30T12:15:22Z</time>
      </trkpt>
      <trkpt lat="44.19887" lon="5.08326">
        <ele>430.33</ele>
        <time>2017-10-30T12:15:40Z</time>
      </trkpt>
      <trkpt lat="44.19899" lon="5.08345">
        <ele>430.33</ele>
        <time>2017-10-30T12:15:59Z</time>
      </trkpt>
      <trkpt lat="44.19898" lon="5.08359">
        <ele>430.33</ele>
        <time>2017-10-30T12:16:13Z</time>
      </trkpt>
      <trkpt lat="44.19893" lon="5.0837">
        <ele>430.81</ele>
        <time>2017-10-30T12:16:25Z</time>
      </trkpt>
      <trkpt lat="44.19886" lon="5.0839">
        <ele>431.29</ele>
        <time>2017-10-30T12:16:41Z</time>
      </trkpt>
      <trkpt lat="44.19879" lon="5.08412">
        <ele>432.25</ele>
        <time>2017-10-30T12:16:58Z</time>
      </trkpt>
      <trkpt lat="44.19873" lon="5.08424">
        <ele>432.73</ele>
        <time>2017-10-30T12:17:11Z</time>
      </trkpt>
      <trkpt lat="44.19867" lon="5.0844">
        <ele>434.65</ele>
        <time>2017-10-30T12:17:26Z</time>
      </trkpt>
      <trkpt lat="44.19869" lon="5.08453">
        <ele>435.61</ele>
        <time>2017-10-30T12:17:42Z</time>
      </trkpt>
      <trkpt lat="44.19869" lon="5.08468">
        <ele>436.58</ele>
        <time>2017-10-30T12:17:57Z</time>
      </trkpt>
      <trkpt lat="44.1987" lon="5.08479">
        <ele>438.5</ele>
        <time>2017-10-30T12:18:10Z</time>
      </trkpt>
      <trkpt lat="44.19875" lon="5.08491">
        <ele>439.46</ele>
        <time>2017-10-30T12:18:24Z</time>
      </trkpt>
      <trkpt lat="44.19873" lon="5.08502">
        <ele>441.86</ele>
        <time>2017-10-30T12:18:40Z</time>
      </trkpt>
      <trkpt lat="44.19871" lon="5.08507">
        <ele>442.82</ele>
        <time>2017-10-30T12:18:55Z</time>
      </trkpt>
      <trkpt lat="44.19869" lon="5.08513">
        <ele>444.27</ele>
        <time>2017-10-30T12:19:08Z</time>
      </trkpt>
      <trkpt lat="44.19868" lon="5.08518">
        <ele>445.23</ele>
        <time>2017-10-30T12:19:22Z</time>
      </trkpt>
      <trkpt lat="44.19868" lon="5.08529">
        <ele>447.63</ele>
        <time>2017-10-30T12:19:36Z</time>
      </trkpt>
      <trkpt lat="44.19871" lon="5.08536">
        <ele>449.07</ele>
        <time>2017-10-30T12:19:49Z</time>
      </trkpt>
      <trkpt lat="44.19875" lon="5.08545">
        <ele>450.52</ele>
        <time>2017-10-30T12:20:02Z</time>
      </trkpt>
      <trkpt lat="44.19878" lon="5.08556">
        <ele>451.48</ele>
        <time>2017-10-30T12:20:18Z</time>
      </trkpt>
      <trkpt lat="44.19882" lon="5.08568">
        <ele>453.4</ele>
        <time>2017-10-30T12:20:36Z</time>
      </trkpt>
      <trkpt lat="44.19887" lon="5.08583">
        <ele>454.84</ele>
        <time>2017-10-30T12:20:53Z</time>
      </trkpt>
      <trkpt lat="44.19886" lon="5.08597">
        <ele>456.76</ele>
        <time>2017-10-30T12:21:07Z</time>
      </trkpt>
      <trkpt lat="44.1989" lon="5.08611">
        <ele>458.21</ele>
        <time>2017-10-30T12:21:23Z</time>
      </trkpt>
      <trkpt lat="44.19897" lon="5.08614">
        <ele>459.17</ele>
        <time>2017-10-30T12:21:42Z</time>
      </trkpt>
      <trkpt lat="44.19895" lon="5.08619">
        <ele>459.17</ele>
        <time>2017-10-30T12:22:01Z</time>
      </trkpt>
      <trkpt lat="44.19896" lon="5.08617">
        <ele>458.21</ele>
        <time>2017-10-30T12:22:18Z</time>
      </trkpt>
      <trkpt lat="44.19896" lon="5.08615">
        <ele>458.21</ele>
        <time>2017-10-30T12:22:43Z</time>
      </trkpt>
      <trkpt lat="44.19896" lon="5.08618">
        <ele>459.65</ele>
        <time>2017-10-30T12:23:04Z</time>
      </trkpt>
      <trkpt lat="44.19895" lon="5.08619">
        <ele>459.65</ele>
        <time>2017-10-30T12:23:25Z</time>
      </trkpt>
      <trkpt lat="44.19896" lon="5.08619">
        <ele>459.65</ele>
        <time>2017-10-30T12:23:50Z</time>
      </trkpt>
      <trkpt lat="44.19894" lon="5.08619">
        <ele>459.65</ele>
        <time>2017-10-30T12:24:04Z</time>
      </trkpt>
      <trkpt lat="44.19894" lon="5.08622">
        <ele>459.17</ele>
        <time>2017-10-30T12:24:29Z</time>
      </trkpt>
      <trkpt lat="44.19894" lon="5.08622">
        <ele>463.01</ele>
        <time>2017-10-30T12:24:31Z</time>
      </trkpt>
      <trkpt lat="44.19894" lon="5.08622">
        <ele>459.65</ele>
        <time>2017-10-30T12:24:32Z</time>
      </trkpt>
      <trkpt lat="44.19895" lon="5.08625">
        <ele>459.65</ele>
        <time>2017-10-30T12:24:49Z</time>
      </trkpt>
      <trkpt lat="44.19904" lon="5.08627">
        <ele>460.13</ele>
        <time>2017-10-30T12:25:06Z</time>
      </trkpt>
      <trkpt lat="44.19917" lon="5.08628">
        <ele>461.09</ele>
        <time>2017-10-30T12:25:23Z</time>
      </trkpt>
      <trkpt lat="44.19935" lon="5.08632">
        <ele>461.09</ele>
        <time>2017-10-30T12:25:40Z</time>
      </trkpt>
      <trkpt lat="44.19949" lon="5.08634">
        <ele>461.57</ele>
        <time>2017-10-30T12:25:56Z</time>
      </trkpt>
      <trkpt lat="44.19962" lon="5.08639">
        <ele>461.57</ele>
        <time>2017-10-30T12:26:12Z</time>
      </trkpt>
      <trkpt lat="44.19974" lon="5.08645">
        <ele>461.57</ele>
        <time>2017-10-30T12:26:28Z</time>
      </trkpt>
      <trkpt lat="44.19988" lon="5.0865">
        <ele>460.13</ele>
        <time>2017-10-30T12:26:46Z</time>
      </trkpt>
      <trkpt lat="44.19989" lon="5.0865">
        <ele>460.13</ele>
        <time>2017-10-30T12:26:47Z</time>
      </trkpt>
      <trkpt lat="44.20006" lon="5.08649">
        <ele>458.69</ele>
        <time>2017-10-30T12:27:06Z</time>
      </trkpt>
      <trkpt lat="44.20019" lon="5.0865">
        <ele>457.24</ele>
        <time>2017-10-30T12:27:24Z</time>
      </trkpt>
      <trkpt lat="44.20028" lon="5.08653">
        <ele>455.8</ele>
        <time>2017-10-30T12:27:36Z</time>
      </trkpt>
      <trkpt lat="44.20032" lon="5.08657">
        <ele>454.36</ele>
        <time>2017-10-30T12:27:52Z</time>
      </trkpt>
      <trkpt lat="44.20035" lon="5.08659">
        <ele>452.92</ele>
        <time>2017-10-30T12:28:06Z</time>
      </trkpt>
      <trkpt lat="44.20043" lon="5.08663">
        <ele>450.52</ele>
        <time>2017-10-30T12:28:22Z</time>
      </trkpt>
      <trkpt lat="44.2005" lon="5.08668">
        <ele>449.07</ele>
        <time>2017-10-30T12:28:36Z</time>
      </trkpt>
      <trkpt lat="44.20058" lon="5.08673">
        <ele>447.63</ele>
        <time>2017-10-30T12:28:53Z</time>
      </trkpt>
      <trkpt lat="44.20063" lon="5.08676">
        <ele>445.71</ele>
        <time>2017-10-30T12:29:07Z</time>
      </trkpt>
      <trkpt lat="44.20068" lon="5.08679">
        <ele>444.27</ele>
        <time>2017-10-30T12:29:23Z</time>
      </trkpt>
      <trkpt lat="44.20078" lon="5.08685">
        <ele>441.86</ele>
        <time>2017-10-30T12:29:41Z</time>
      </trkpt>
      <trkpt lat="44.20082" lon="5.08689">
        <ele>440.42</ele>
        <time>2017-10-30T12:29:57Z</time>
      </trkpt>
      <trkpt lat="44.20086" lon="5.08692">
        <ele>438.5</ele>
        <time>2017-10-30T12:30:13Z</time>
      </trkpt>
      <trkpt lat="44.20091" lon="5.08697">
        <ele>436.58</ele>
        <time>2017-10-30T12:30:29Z</time>
      </trkpt>
      <trkpt lat="44.20096" lon="5.08699">
        <ele>434.17</ele>
        <time>2017-10-30T12:30:45Z</time>
      </trkpt>
      <trkpt lat="44.20102" lon="5.08702">
        <ele>432.73</ele>
        <time>2017-10-30T12:31:00Z</time>
      </trkpt>
      <trkpt lat="44.20109" lon="5.08703">
        <ele>431.29</ele>
        <time>2017-10-30T12:31:15Z</time>
      </trkpt>
      <trkpt lat="44.20114" lon="5.0871">
        <ele>429.37</ele>
        <time>2017-10-30T12:31:31Z</time>
      </trkpt>
      <trkpt lat="44.20119" lon="5.08712">
        <ele>427.92</ele>
        <time>2017-10-30T12:31:46Z</time>
      </trkpt>
      <trkpt lat="44.20125" lon="5.08716">
        <ele>426.96</ele>
        <time>2017-10-30T12:31:59Z</time>
      </trkpt>
      <trkpt lat="44.20129" lon="5.0872">
        <ele>425.52</ele>
        <time>2017-10-30T12:32:14Z</time>
      </trkpt>
      <trkpt lat="44.20135" lon="5.08723">
        <ele>423.6</ele>
        <time>2017-10-30T12:32:30Z</time>
      </trkpt>
      <trkpt lat="44.20141" lon="5.08727">
        <ele>421.68</ele>
        <time>2017-10-30T12:32:45Z</time>
      </trkpt>
      <trkpt lat="44.20146" lon="5.0873">
        <ele>419.75</ele>
        <time>2017-10-30T12:33:02Z</time>
      </trkpt>
      <trkpt lat="44.20152" lon="5.08737">
        <ele>417.35</ele>
        <time>2017-10-30T12:33:19Z</time>
      </trkpt>
      <trkpt lat="44.2016" lon="5.08741">
        <ele>415.43</ele>
        <time>2017-10-30T12:33:35Z</time>
      </trkpt>
      <trkpt lat="44.20165" lon="5.08743">
        <ele>413.02</ele>
        <time>2017-10-30T12:33:51Z</time>
      </trkpt>
      <trkpt lat="44.20171" lon="5.08749">
        <ele>411.58</ele>
        <time>2017-10-30T12:34:07Z</time>
      </trkpt>
      <trkpt lat="44.20176" lon="5.08756">
        <ele>409.66</ele>
        <time>2017-10-30T12:34:23Z</time>
      </trkpt>
      <trkpt lat="44.2018" lon="5.08757">
        <ele>409.18</ele>
        <time>2017-10-30T12:34:41Z</time>
      </trkpt>
      <trkpt lat="44.20182" lon="5.08757">
        <ele>408.22</ele>
        <time>2017-10-30T12:35:06Z</time>
      </trkpt>
      <trkpt lat="44.20188" lon="5.08757">
        <ele>408.22</ele>
        <time>2017-10-30T12:35:21Z</time>
      </trkpt>
      <trkpt lat="44.202" lon="5.08748">
        <ele>408.22</ele>
        <time>2017-10-30T12:35:39Z</time>
      </trkpt>
      <trkpt lat="44.20209" lon="5.08741">
        <ele>410.14</ele>
        <time>2017-10-30T12:35:54Z</time>
      </trkpt>
      <trkpt lat="44.20216" lon="5.08736">
        <ele>411.58</ele>
        <time>2017-10-30T12:36:09Z</time>
      </trkpt>
      <trkpt lat="44.20225" lon="5.08734">
        <ele>412.54</ele>
        <time>2017-10-30T12:36:24Z</time>
      </trkpt>
      <trkpt lat="44.20237" lon="5.08727">
        <ele>413.02</ele>
        <time>2017-10-30T12:36:40Z</time>
      </trkpt>
      <trkpt lat="44.20253" lon="5.08723">
        <ele>413.98</ele>
        <time>2017-10-30T12:36:56Z</time>
      </trkpt>
      <trkpt lat="44.2027" lon="5.08719">
        <ele>414.47</ele>
        <time>2017-10-30T12:37:14Z</time>
      </trkpt>
      <trkpt lat="44.20283" lon="5.0871">
        <ele>413.02</ele>
        <time>2017-10-30T12:37:29Z</time>
      </trkpt>
      <trkpt lat="44.20298" lon="5.08705">
        <ele>412.54</ele>
        <time>2017-10-30T12:37:46Z</time>
      </trkpt>
      <trkpt lat="44.20312" lon="5.08708">
        <ele>414.95</ele>
        <time>2017-10-30T12:38:04Z</time>
      </trkpt>
      <trkpt lat="44.20329" lon="5.08714">
        <ele>416.87</ele>
        <time>2017-10-30T12:38:22Z</time>
      </trkpt>
      <trkpt lat="44.20338" lon="5.08718">
        <ele>415.91</ele>
        <time>2017-10-30T12:38:37Z</time>
      </trkpt>
      <trkpt lat="44.20348" lon="5.08717">
        <ele>414.47</ele>
        <time>2017-10-30T12:38:53Z</time>
      </trkpt>
      <trkpt lat="44.20357" lon="5.08719">
        <ele>413.5</ele>
        <time>2017-10-30T12:39:07Z</time>
      </trkpt>
      <trkpt lat="44.20364" lon="5.08721">
        <ele>412.54</ele>
        <time>2017-10-30T12:39:23Z</time>
      </trkpt>
      <trkpt lat="44.20376" lon="5.08722">
        <ele>409.66</ele>
        <time>2017-10-30T12:39:40Z</time>
      </trkpt>
      <trkpt lat="44.20383" lon="5.08725">
        <ele>407.74</ele>
        <time>2017-10-30T12:39:56Z</time>
      </trkpt>
      <trkpt lat="44.20396" lon="5.0873">
        <ele>407.26</ele>
        <time>2017-10-30T12:40:15Z</time>
      </trkpt>
      <trkpt lat="44.20409" lon="5.08731">
        <ele>405.81</ele>
        <time>2017-10-30T12:40:30Z</time>
      </trkpt>
      <trkpt lat="44.20416" lon="5.08736">
        <ele>403.41</ele>
        <time>2017-10-30T12:40:47Z</time>
      </trkpt>
      <trkpt lat="44.20424" lon="5.0874">
        <ele>401.97</ele>
        <time>2017-10-30T12:41:02Z</time>
      </trkpt>
      <trkpt lat="44.20436" lon="5.08744">
        <ele>400.05</ele>
        <time>2017-10-30T12:41:19Z</time>
      </trkpt>
      <trkpt lat="44.20449" lon="5.08748">
        <ele>399.08</ele>
        <time>2017-10-30T12:41:34Z</time>
      </trkpt>
      <trkpt lat="44.20458" lon="5.08749">
        <ele>399.08</ele>
        <time>2017-10-30T12:41:52Z</time>
      </trkpt>
      <trkpt lat="44.20467" lon="5.08747">
        <ele>399.08</ele>
        <time>2017-10-30T12:42:08Z</time>
      </trkpt>
      <trkpt lat="44.20479" lon="5.08743">
        <ele>401.01</ele>
        <time>2017-10-30T12:42:24Z</time>
      </trkpt>
      <trkpt lat="44.20496" lon="5.08741">
        <ele>401.97</ele>
        <time>2017-10-30T12:42:44Z</time>
      </trkpt>
      <trkpt lat="44.20507" lon="5.0874">
        <ele>400.53</ele>
        <time>2017-10-30T12:42:58Z</time>
      </trkpt>
      <trkpt lat="44.20521" lon="5.0874">
        <ele>398.6</ele>
        <time>2017-10-30T12:43:16Z</time>
      </trkpt>
      <trkpt lat="44.20534" lon="5.08737">
        <ele>398.12</ele>
        <time>2017-10-30T12:43:34Z</time>
      </trkpt>
      <trkpt lat="44.20542" lon="5.08736">
        <ele>398.12</ele>
        <time>2017-10-30T12:43:39Z</time>
      </trkpt>
      <trkpt lat="44.20558" lon="5.08732">
        <ele>397.16</ele>
        <time>2017-10-30T12:44:00Z</time>
      </trkpt>
      <trkpt lat="44.20567" lon="5.08733">
        <ele>395.24</ele>
        <time>2017-10-30T12:44:17Z</time>
      </trkpt>
      <trkpt lat="44.20577" lon="5.08733">
        <ele>393.8</ele>
        <time>2017-10-30T12:44:33Z</time>
      </trkpt>
      <trkpt lat="44.20586" lon="5.08731">
        <ele>393.8</ele>
        <time>2017-10-30T12:44:50Z</time>
      </trkpt>
      <trkpt lat="44.20588" lon="5.0873">
        <ele>393.8</ele>
        <time>2017-10-30T12:45:14Z</time>
      </trkpt>
      <trkpt lat="44.20589" lon="5.0873">
        <ele>393.8</ele>
        <time>2017-10-30T12:45:33Z</time>
      </trkpt>
      <trkpt lat="44.20598" lon="5.08732">
        <ele>392.36</ele>
        <time>2017-10-30T12:45:48Z</time>
      </trkpt>
      <trkpt lat="44.20609" lon="5.08731">
        <ele>391.39</ele>
        <time>2017-10-30T12:46:05Z</time>
      </trkpt>
      <trkpt lat="44.20619" lon="5.08729">
        <ele>389.95</ele>
        <time>2017-10-30T12:46:20Z</time>
      </trkpt>
      <trkpt lat="44.20625" lon="5.08727">
        <ele>388.99</ele>
        <time>2017-10-30T12:46:35Z</time>
      </trkpt>
      <trkpt lat="44.20634" lon="5.08724">
        <ele>388.99</ele>
        <time>2017-10-30T12:46:51Z</time>
      </trkpt>
      <trkpt lat="44.20647" lon="5.0872">
        <ele>390.91</ele>
        <time>2017-10-30T12:47:08Z</time>
      </trkpt>
      <trkpt lat="44.20663" lon="5.08712">
        <ele>390.43</ele>
        <time>2017-10-30T12:47:25Z</time>
      </trkpt>
      <trkpt lat="44.20679" lon="5.08704">
        <ele>390.43</ele>
        <time>2017-10-30T12:47:42Z</time>
      </trkpt>
      <trkpt lat="44.20694" lon="5.08699">
        <ele>391.39</ele>
        <time>2017-10-30T12:48:00Z</time>
      </trkpt>
      <trkpt lat="44.20712" lon="5.08694">
        <ele>391.39</ele>
        <time>2017-10-30T12:48:20Z</time>
      </trkpt>
      <trkpt lat="44.20729" lon="5.08688">
        <ele>391.39</ele>
        <time>2017-10-30T12:48:38Z</time>
      </trkpt>
      <trkpt lat="44.20746" lon="5.0868">
        <ele>391.39</ele>
        <time>2017-10-30T12:48:56Z</time>
      </trkpt>
      <trkpt lat="44.20761" lon="5.08675">
        <ele>391.39</ele>
        <time>2017-10-30T12:49:12Z</time>
      </trkpt>
      <trkpt lat="44.2078" lon="5.08672">
        <ele>391.39</ele>
        <time>2017-10-30T12:49:28Z</time>
      </trkpt>
      <trkpt lat="44.20793" lon="5.08666">
        <ele>389.95</ele>
        <time>2017-10-30T12:49:46Z</time>
      </trkpt>
      <trkpt lat="44.20809" lon="5.08662">
        <ele>388.51</ele>
        <time>2017-10-30T12:50:03Z</time>
      </trkpt>
      <trkpt lat="44.20821" lon="5.08658">
        <ele>387.07</ele>
        <time>2017-10-30T12:50:19Z</time>
      </trkpt>
      <trkpt lat="44.20833" lon="5.08656">
        <ele>385.63</ele>
        <time>2017-10-30T12:50:35Z</time>
      </trkpt>
      <trkpt lat="44.20846" lon="5.08654">
        <ele>384.18</ele>
        <time>2017-10-30T12:50:53Z</time>
      </trkpt>
      <trkpt lat="44.20861" lon="5.08651">
        <ele>382.26</ele>
        <time>2017-10-30T12:51:11Z</time>
      </trkpt>
      <trkpt lat="44.20876" lon="5.08646">
        <ele>381.3</ele>
        <time>2017-10-30T12:51:29Z</time>
      </trkpt>
      <trkpt lat="44.20885" lon="5.0864">
        <ele>380.34</ele>
        <time>2017-10-30T12:51:44Z</time>
      </trkpt>
      <trkpt lat="44.20896" lon="5.08637">
        <ele>379.38</ele>
        <time>2017-10-30T12:51:59Z</time>
      </trkpt>
      <trkpt lat="44.20908" lon="5.08637">
        <ele>377.94</ele>
        <time>2017-10-30T12:52:14Z</time>
      </trkpt>
      <trkpt lat="44.20922" lon="5.08635">
        <ele>376.49</ele>
        <time>2017-10-30T12:52:32Z</time>
      </trkpt>
      <trkpt lat="44.20935" lon="5.08634">
        <ele>374.57</ele>
        <time>2017-10-30T12:52:49Z</time>
      </trkpt>
      <trkpt lat="44.20947" lon="5.08634">
        <ele>372.65</ele>
        <time>2017-10-30T12:53:05Z</time>
      </trkpt>
      <trkpt lat="44.20962" lon="5.08631">
        <ele>371.21</ele>
        <time>2017-10-30T12:53:24Z</time>
      </trkpt>
      <trkpt lat="44.20978" lon="5.08626">
        <ele>370.73</ele>
        <time>2017-10-30T12:53:41Z</time>
      </trkpt>
      <trkpt lat="44.20995" lon="5.0862">
        <ele>370.73</ele>
        <time>2017-10-30T12:54:00Z</time>
      </trkpt>
      <trkpt lat="44.21014" lon="5.08614">
        <ele>371.69</ele>
        <time>2017-10-30T12:54:19Z</time>
      </trkpt>
      <trkpt lat="44.21025" lon="5.08612">
        <ele>370.24</ele>
        <time>2017-10-30T12:54:33Z</time>
      </trkpt>
      <trkpt lat="44.21039" lon="5.08608">
        <ele>368.8</ele>
        <time>2017-10-30T12:54:50Z</time>
      </trkpt>
      <trkpt lat="44.21052" lon="5.08604">
        <ele>368.32</ele>
        <time>2017-10-30T12:55:06Z</time>
      </trkpt>
      <trkpt lat="44.21064" lon="5.08601">
        <ele>366.88</ele>
        <time>2017-10-30T12:55:22Z</time>
      </trkpt>
      <trkpt lat="44.21073" lon="5.086">
        <ele>365.92</ele>
        <time>2017-10-30T12:55:40Z</time>
      </trkpt>
      <trkpt lat="44.21084" lon="5.086">
        <ele>364.96</ele>
        <time>2017-10-30T12:55:56Z</time>
      </trkpt>
      <trkpt lat="44.21095" lon="5.08598">
        <ele>362.55</ele>
        <time>2017-10-30T12:56:13Z</time>
      </trkpt>
      <trkpt lat="44.21107" lon="5.086">
        <ele>360.63</ele>
        <time>2017-10-30T12:56:32Z</time>
      </trkpt>
      <trkpt lat="44.21116" lon="5.086">
        <ele>359.19</ele>
        <time>2017-10-30T12:56:48Z</time>
      </trkpt>
      <trkpt lat="44.21122" lon="5.08599">
        <ele>357.75</ele>
        <time>2017-10-30T12:57:05Z</time>
      </trkpt>
      <trkpt lat="44.2113" lon="5.08599">
        <ele>355.83</ele>
        <time>2017-10-30T12:57:20Z</time>
      </trkpt>
      <trkpt lat="44.2114" lon="5.08598">
        <ele>354.86</ele>
        <time>2017-10-30T12:57:35Z</time>
      </trkpt>
      <trkpt lat="44.21144" lon="5.086">
        <ele>354.86</ele>
        <time>2017-10-30T12:57:54Z</time>
      </trkpt>
      <trkpt lat="44.21149" lon="5.08601">
        <ele>352.94</ele>
        <time>2017-10-30T12:58:11Z</time>
      </trkpt>
      <trkpt lat="44.21161" lon="5.08599">
        <ele>351.02</ele>
        <time>2017-10-30T12:58:30Z</time>
      </trkpt>
      <trkpt lat="44.21175" lon="5.08596">
        <ele>350.06</ele>
        <time>2017-10-30T12:58:48Z</time>
      </trkpt>
      <trkpt lat="44.21187" lon="5.0859">
        <ele>350.06</ele>
        <time>2017-10-30T12:59:05Z</time>
      </trkpt>
      <trkpt lat="44.21199" lon="5.08584">
        <ele>350.06</ele>
        <time>2017-10-30T12:59:20Z</time>
      </trkpt>
      <trkpt lat="44.21214" lon="5.08582">
        <ele>349.1</ele>
        <time>2017-10-30T12:59:36Z</time>
      </trkpt>
      <trkpt lat="44.2123" lon="5.08577">
        <ele>349.1</ele>
        <time>2017-10-30T12:59:52Z</time>
      </trkpt>
      <trkpt lat="44.21251" lon="5.08572">
        <ele>348.13</ele>
        <time>2017-10-30T13:00:13Z</time>
      </trkpt>
      <trkpt lat="44.21266" lon="5.08569">
        <ele>348.13</ele>
        <time>2017-10-30T13:00:30Z</time>
      </trkpt>
      <trkpt lat="44.2128" lon="5.08567">
        <ele>348.13</ele>
        <time>2017-10-30T13:00:47Z</time>
      </trkpt>
      <trkpt lat="44.21298" lon="5.08559">
        <ele>348.13</ele>
        <time>2017-10-30T13:01:05Z</time>
      </trkpt>
      <trkpt lat="44.21314" lon="5.08551">
        <ele>348.13</ele>
        <time>2017-10-30T13:01:23Z</time>
      </trkpt>
      <trkpt lat="44.21318" lon="5.08549">
        <ele>348.13</ele>
        <time>2017-10-30T13:01:40Z</time>
      </trkpt>
      <trkpt lat="44.2133" lon="5.08544">
        <ele>348.13</ele>
        <time>2017-10-30T13:01:55Z</time>
      </trkpt>
      <trkpt lat="44.21342" lon="5.0854">
        <ele>348.13</ele>
        <time>2017-10-30T13:02:09Z</time>
      </trkpt>
      <trkpt lat="44.21352" lon="5.08537">
        <ele>348.13</ele>
        <time>2017-10-30T13:02:25Z</time>
      </trkpt>
      <trkpt lat="44.21371" lon="5.08531">
        <ele>348.13</ele>
        <time>2017-10-30T13:02:44Z</time>
      </trkpt>
      <trkpt lat="44.21385" lon="5.08525">
        <ele>348.13</ele>
        <time>2017-10-30T13:03:01Z</time>
      </trkpt>
      <trkpt lat="44.21399" lon="5.08517">
        <ele>348.13</ele>
        <time>2017-10-30T13:03:17Z</time>
      </trkpt>
      <trkpt lat="44.21414" lon="5.0851">
        <ele>348.13</ele>
        <time>2017-10-30T13:03:34Z</time>
      </trkpt>
      <trkpt lat="44.21416" lon="5.0851">
        <ele>348.13</ele>
        <time>2017-10-30T13:03:57Z</time>
      </trkpt>
      <trkpt lat="44.21416" lon="5.0851">
        <ele>350.06</ele>
        <time>2017-10-30T13:04:04Z</time>
      </trkpt>
      <trkpt lat="44.21416" lon="5.0851">
        <ele>348.62</ele>
        <time>2017-10-30T13:04:11Z</time>
      </trkpt>
      <trkpt lat="44.21418" lon="5.08507">
        <ele>348.62</ele>
        <time>2017-10-30T13:04:33Z</time>
      </trkpt>
      <trkpt lat="44.21418" lon="5.08508">
        <ele>348.62</ele>
        <time>2017-10-30T13:04:47Z</time>
      </trkpt>
      <trkpt lat="44.21422" lon="5.08511">
        <ele>349.1</ele>
        <time>2017-10-30T13:05:10Z</time>
      </trkpt>
      <trkpt lat="44.2143" lon="5.08503">
        <ele>349.1</ele>
        <time>2017-10-30T13:05:34Z</time>
      </trkpt>
      <trkpt lat="44.21441" lon="5.08499">
        <ele>350.06</ele>
        <time>2017-10-30T13:05:52Z</time>
      </trkpt>
      <trkpt lat="44.2145" lon="5.08498">
        <ele>348.62</ele>
        <time>2017-10-30T13:06:06Z</time>
      </trkpt>
      <trkpt lat="44.21464" lon="5.08492">
        <ele>346.21</ele>
        <time>2017-10-30T13:06:24Z</time>
      </trkpt>
      <trkpt lat="44.21465" lon="5.08491">
        <ele>346.69</ele>
        <time>2017-10-30T13:06:27Z</time>
      </trkpt>
      <trkpt lat="44.21469" lon="5.08489">
        <ele>346.69</ele>
        <time>2017-10-30T13:06:47Z</time>
      </trkpt>
      <trkpt lat="44.21473" lon="5.08489">
        <ele>346.69</ele>
        <time>2017-10-30T13:07:02Z</time>
      </trkpt>
      <trkpt lat="44.21487" lon="5.08485">
        <ele>345.25</ele>
        <time>2017-10-30T13:07:18Z</time>
      </trkpt>
      <trkpt lat="44.215" lon="5.08482">
        <ele>344.29</ele>
        <time>2017-10-30T13:07:35Z</time>
      </trkpt>
      <trkpt lat="44.21515" lon="5.08479">
        <ele>343.81</ele>
        <time>2017-10-30T13:07:54Z</time>
      </trkpt>
      <trkpt lat="44.21531" lon="5.08476">
        <ele>342.85</ele>
        <time>2017-10-30T13:08:10Z</time>
      </trkpt>
      <trkpt lat="44.21537" lon="5.08475">
        <ele>341.89</ele>
        <time>2017-10-30T13:08:28Z</time>
      </trkpt>
      <trkpt lat="44.21546" lon="5.08475">
        <ele>341.89</ele>
        <time>2017-10-30T13:08:45Z</time>
      </trkpt>
      <trkpt lat="44.21548" lon="5.08476">
        <ele>341.41</ele>
        <time>2017-10-30T13:09:02Z</time>
      </trkpt>
      <trkpt lat="44.21549" lon="5.08477">
        <ele>340.92</ele>
        <time>2017-10-30T13:09:22Z</time>
      </trkpt>
      <trkpt lat="44.21554" lon="5.08474">
        <ele>340.92</ele>
        <time>2017-10-30T13:09:38Z</time>
      </trkpt>
      <trkpt lat="44.21566" lon="5.08471">
        <ele>339.96</ele>
        <time>2017-10-30T13:09:56Z</time>
      </trkpt>
      <trkpt lat="44.21582" lon="5.08469">
        <ele>339.96</ele>
        <time>2017-10-30T13:10:16Z</time>
      </trkpt>
      <trkpt lat="44.21599" lon="5.08467">
        <ele>338.04</ele>
        <time>2017-10-30T13:10:37Z</time>
      </trkpt>
      <trkpt lat="44.21605" lon="5.08467">
        <ele>338.04</ele>
        <time>2017-10-30T13:10:56Z</time>
      </trkpt>
      <trkpt lat="44.21616" lon="5.08466">
        <ele>337.08</ele>
        <time>2017-10-30T13:11:18Z</time>
      </trkpt>
      <trkpt lat="44.21626" lon="5.08464">
        <ele>336.6</ele>
        <time>2017-10-30T13:11:34Z</time>
      </trkpt>
      <trkpt lat="44.2164" lon="5.08461">
        <ele>335.16</ele>
        <time>2017-10-30T13:11:54Z</time>
      </trkpt>
      <trkpt lat="44.21649" lon="5.0846">
        <ele>335.64</ele>
        <time>2017-10-30T13:12:12Z</time>
      </trkpt>
      <trkpt lat="44.21648" lon="5.0846">
        <ele>335.16</ele>
        <time>2017-10-30T13:12:36Z</time>
      </trkpt>
    </trkseg>
  </trk>
</gpx>